Observation data for Lake McClellan 2NW on 04/24/2019      Previous  Date  Next       Current Mesonet Observations  Soil Data  Daily Summary Page  Observations in Plain Language
KMC5 240500Z 32006KT 08/05 A3007 RMK A01 T00780050  RH  083%=      5-min Rain = 0
KMC5 240501Z 32006KT 08/05 A3007 RMK A01 T00770050  RH  083%=      5-min Rain = 0
KMC5 240502Z 31006KT 08/05 A3007 RMK A01 T00760050  RH  083%=      5-min Rain = 0
KMC5 240503Z 31007KT 08/05 A3007 RMK A01 T00750050  RH  084%=      5-min Rain = 0
KMC5 240504Z 31007KT 07/05 A3007 RMK A01 T00740050  RH  085%=      5-min Rain = 0
KMC5 240505Z 31007KT 07/05 A3007 RMK A01 T00730050  RH  085%=      5-min Rain = 0
KMC5 240506Z 31007KT 07/05 A3007 RMK A01 T00720050  RH  086%=      5-min Rain = 0
KMC5 240507Z 31008KT 07/05 A3007 RMK A01 T00710050  RH  086%=      5-min Rain = 0
KMC5 240508Z 31008KT 07/05 A3007 RMK A01 T00710050  RH  086%=      5-min Rain = 0
KMC5 240509Z 31009KT 07/05 A3007 RMK A01 T00710049  RH  086%=      5-min Rain = 0
KMC5 240510Z 31009KT 07/05 A3007 RMK A01 T00710049  RH  086%=      5-min Rain = 0
KMC5 240511Z 31009KT 07/05 A3007 RMK A01 T00710049  RH  086%=      5-min Rain = 0
KMC5 240512Z 31010KT 07/05 A3006 RMK A01 T00710049  RH  086%=      5-min Rain = 0
KMC5 240513Z 32010KT 07/05 A3006 RMK A01 T00710049  RH  086%=      5-min Rain = 0
KMC5 240514Z 31010KT 07/05 A3006 RMK A01 T00710049  RH  086%=      5-min Rain = 0
KMC5 240515Z 32010KT 07/05 A3006 RMK A01 T00700049  RH  086%=      5-min Rain = 0
KMC5 240516Z 31011KT 07/05 A3006 RMK A01 T00700049  RH  087%=      5-min Rain = 0
KMC5 240517Z 32011KT 07/05 A3006 RMK A01 T00700049  RH  087%=      5-min Rain = 0
KMC5 240518Z 32011KT 07/05 A3006 RMK A01 T00700049  RH  087%=      5-min Rain = 0
KMC5 240519Z 32011KT 07/05 A3006 RMK A01 T00700049  RH  087%=      5-min Rain = 0
KMC5 240520Z 32010KT 07/05 A3006 RMK A01 T00700049  RH  087%=      5-min Rain = 0
KMC5 240521Z 32010KT 07/05 A3006 RMK A01 T00700049  RH  087%=      5-min Rain = 0
KMC5 240522Z 32010KT 07/05 A3006 RMK A01 T00700048  RH  086%=      5-min Rain = 0
KMC5 240523Z 31010KT 07/05 A3006 RMK A01 T00700049  RH  086%=      5-min Rain = 0
KMC5 240524Z 31011KT 07/05 A3006 RMK A01 T00700048  RH  086%=      5-min Rain = 0
KMC5 240525Z 32011KT 07/05 A3006 RMK A01 T00700048  RH  086%=      5-min Rain = 0
KMC5 240526Z 32010KT 07/05 A3006 RMK A01 T00700049  RH  086%=      5-min Rain = 0
KMC5 240527Z 32011KT 07/05 A3006 RMK A01 T00700049  RH  086%=      5-min Rain = 0
KMC5 240528Z 32011KT 07/05 A3006 RMK A01 T00710048  RH  086%=      5-min Rain = 0
KMC5 240529Z 32011KT 07/05 A3006 RMK A01 T00710049  RH  086%=      5-min Rain = 0
KMC5 240530Z 32012KT 07/05 A3005 RMK A01 T00710048  RH  085%=      5-min Rain = 0
KMC5 240531Z 32011KT 07/05 A3005 RMK A01 T00710049  RH  086%=      5-min Rain = 0
KMC5 240532Z 32012KT 07/05 A3005 RMK A01 T00710049  RH  086%=      5-min Rain = 0
KMC5 240533Z 32012KT 07/05 A3005 RMK A01 T00710049  RH  086%=      5-min Rain = 0
KMC5 240534Z 32012KT 07/05 A3005 RMK A01 T00710048  RH  086%=      5-min Rain = 0
KMC5 240535Z 32012KT 07/05 A3005 RMK A01 T00710048  RH  085%=      5-min Rain = 0
KMC5 240536Z 32011KT 07/05 A3005 RMK A01 T00710048  RH  085%=      5-min Rain = 0
KMC5 240537Z 32012KT 07/05 A3004 RMK A01 T00710048  RH  085%=      5-min Rain = 0
KMC5 240538Z 32013KT 07/05 A3004 RMK A01 T00720047  RH  085%=      5-min Rain = 0
KMC5 240539Z 32011KT 07/05 A3004 RMK A01 T00720047  RH  084%=      5-min Rain = 0
KMC5 240540Z 32012KT 07/05 A3004 RMK A01 T00720047  RH  084%=      5-min Rain = 0
KMC5 240541Z 32013KT 07/05 A3004 RMK A01 T00720047  RH  084%=      5-min Rain = 0
KMC5 240542Z 32013KT 07/05 A3004 RMK A01 T00720047  RH  084%=      5-min Rain = 0
KMC5 240543Z 32013KT 07/05 A3004 RMK A01 T00720047  RH  084%=      5-min Rain = 0
KMC5 240544Z 32013KT 07/05 A3004 RMK A01 T00730047  RH  084%=      5-min Rain = 0
KMC5 240545Z 31013KT 07/05 A3004 RMK A01 T00720047  RH  084%=      5-min Rain = 0
KMC5 240546Z 32012KT 07/05 A3004 RMK A01 T00720047  RH  084%=      5-min Rain = 0
KMC5 240547Z 32011KT 07/05 A3004 RMK A01 T00720047  RH  084%=      5-min Rain = 0
KMC5 240548Z 32012KT 07/05 A3004 RMK A01 T00720047  RH  084%=      5-min Rain = 0
KMC5 240549Z 32012KT 07/05 A3004 RMK A01 T00720047  RH  084%=      5-min Rain = 0
KMC5 240550Z 32012KT 07/05 A3004 RMK A01 T00720047  RH  084%=      5-min Rain = 0
KMC5 240551Z 32011KT 07/05 A3004 RMK A01 T00720046  RH  084%=      5-min Rain = 0
KMC5 240552Z 32012KT 07/05 A3004 RMK A01 T00720046  RH  084%=      5-min Rain = 0
KMC5 240553Z 32011KT 07/05 A3004 RMK A01 T00720046  RH  084%=      5-min Rain = 0
KMC5 240554Z 32011KT 07/05 A3004 RMK A01 T00720046  RH  083%=      5-min Rain = 0
KMC5 240555Z 32011KT 07/05 A3004 RMK A01 T00720045  RH  083%=      5-min Rain = 0
KMC5 240556Z 32010KT 07/05 A3004 RMK A01 T00720046  RH  083%=      5-min Rain = 0
KMC5 240557Z 32011KT 07/05 A3004 RMK A01 T00730046  RH  083%=      5-min Rain = 0
KMC5 240558Z 32011KT 07/05 A3004 RMK A01 T00730046  RH  083%=      5-min Rain = 0
KMC5 240559Z 32011KT 07/05 A3004 RMK A01 T00720046  RH  083%=      5-min Rain = 0
KMC5 240600Z 32011KT 07/05 A3004 RMK A01 T00720046  RH  083%=      5-min Rain = 0
KMC5 240601Z 32011KT 07/05 A3004 RMK A01 T00720047  RH  084%=      5-min Rain = 0
KMC5 240602Z 32011KT 07/05 A3003 RMK A01 T00720046  RH  084%=      5-min Rain = 0
KMC5 240603Z 32012KT 07/05 A3003 RMK A01 T00720046  RH  084%=      5-min Rain = 0
KMC5 240604Z 32013KT 07/05 A3003 RMK A01 T00720046  RH  084%=      5-min Rain = 0
KMC5 240605Z 32011KT 07/05 A3003 RMK A01 T00720046  RH  084%=      5-min Rain = 0
KMC5 240606Z 32012KT 07/05 A3003 RMK A01 T00720046  RH  084%=      5-min Rain = 0
KMC5 240607Z 32013KT 07/05 A3003 RMK A01 T00710045  RH  083%=      5-min Rain = 0
KMC5 240608Z 32013KT 07/05 A3003 RMK A01 T00720045  RH  083%=      5-min Rain = 0
KMC5 240609Z 32012KT 07/05 A3003 RMK A01 T00720045  RH  083%=      5-min Rain = 0
KMC5 240610Z 32012KT 07/05 A3002 RMK A01 T00720045  RH  083%=      5-min Rain = 0
KMC5 240611Z 32013KT 07/05 A3002 RMK A01 T00720045  RH  083%=      5-min Rain = 0
KMC5 240612Z 32011KT 07/05 A3002 RMK A01 T00720045  RH  083%=      5-min Rain = 0
KMC5 240613Z 32012KT 07/05 A3002 RMK A01 T00720045  RH  083%=      5-min Rain = 0
KMC5 240614Z 32012KT 07/04 A3002 RMK A01 T00720044  RH  082%=      5-min Rain = 0
KMC5 240615Z 32012KT 07/04 A3002 RMK A01 T00730044  RH  082%=      5-min Rain = 0
KMC5 240616Z 32011KT 07/04 A3002 RMK A01 T00730043  RH  082%=      5-min Rain = 0
KMC5 240617Z 32012KT 07/04 A3002 RMK A01 T00730044  RH  082%=      5-min Rain = 0
KMC5 240618Z 32011KT 07/04 A3002 RMK A01 T00730043  RH  081%=      5-min Rain = 0
KMC5 240619Z 32011KT 07/04 A3002 RMK A01 T00730043  RH  081%=      5-min Rain = 0
KMC5 240620Z 32012KT 07/04 A3002 RMK A01 T00730043  RH  081%=      5-min Rain = 0
KMC5 240621Z 32012KT 07/04 A3002 RMK A01 T00730043  RH  081%=      5-min Rain = 0
KMC5 240622Z 32011KT 07/04 A3002 RMK A01 T00730043  RH  081%=      5-min Rain = 0
KMC5 240623Z 32011KT 07/04 A3002 RMK A01 T00730043  RH  081%=      5-min Rain = 0
KMC5 240624Z 32013KT 07/04 A3002 RMK A01 T00730043  RH  082%=      5-min Rain = 0
KMC5 240625Z 32012KT 07/04 A3002 RMK A01 T00730042  RH  081%=      5-min Rain = 0
KMC5 240626Z 32011KT 07/04 A3002 RMK A01 T00720043  RH  081%=      5-min Rain = 0
KMC5 240627Z 32012KT 07/04 A3001 RMK A01 T00720043  RH  082%=      5-min Rain = 0
KMC5 240628Z 32012KT 07/04 A3001 RMK A01 T00720043  RH  082%=      5-min Rain = 0
KMC5 240629Z 32012KT 07/04 A3001 RMK A01 T00720043  RH  082%=      5-min Rain = 0
KMC5 240630Z 32012KT 07/04 A3001 RMK A01 T00720043  RH  082%=      5-min Rain = 0
KMC5 240631Z 32012KT 07/04 A3001 RMK A01 T00720042  RH  081%=      5-min Rain = 0
KMC5 240632Z 32012KT 07/04 A3001 RMK A01 T00720042  RH  081%=      5-min Rain = 0
KMC5 240633Z 32011KT 07/04 A3001 RMK A01 T00720042  RH  081%=      5-min Rain = 0
KMC5 240634Z 32011KT 07/04 A3002 RMK A01 T00720043  RH  082%=      5-min Rain = 0
KMC5 240635Z 32011KT 07/04 A3002 RMK A01 T00720043  RH  082%=      5-min Rain = 0
KMC5 240636Z 32010KT 07/04 A3002 RMK A01 T00720042  RH  081%=      5-min Rain = 0
KMC5 240637Z 32010KT 07/04 A3002 RMK A01 T00720043  RH  082%=      5-min Rain = 0
KMC5 240638Z 32010KT 07/04 A3002 RMK A01 T00720044  RH  082%=      5-min Rain = 0
KMC5 240639Z 32010KT 07/04 A3002 RMK A01 T00720043  RH  082%=      5-min Rain = 0
KMC5 240640Z 32010KT 07/04 A3002 RMK A01 T00720043  RH  082%=      5-min Rain = 0
KMC5 240641Z 32010KT 07/04 A3002 RMK A01 T00730043  RH  082%=      5-min Rain = 0
KMC5 240642Z 32009KT 07/04 A3002 RMK A01 T00730043  RH  081%=      5-min Rain = 0
KMC5 240643Z 32010KT 07/04 A3002 RMK A01 T00720043  RH  082%=      5-min Rain = 0
KMC5 240644Z 32010KT 07/04 A3002 RMK A01 T00720043  RH  082%=      5-min Rain = 0
KMC5 240645Z 32009KT 07/04 A3002 RMK A01 T00720043  RH  082%=      5-min Rain = 0
KMC5 240646Z 32010KT 07/04 A3001 RMK A01 T00720044  RH  082%=      5-min Rain = 0
KMC5 240647Z 31009KT 07/05 A3001 RMK A01 T00730045  RH  083%=      5-min Rain = 0
KMC5 240648Z 31010KT 07/04 A3001 RMK A01 T00720044  RH  083%=      5-min Rain = 0
KMC5 240649Z 31010KT 07/04 A3001 RMK A01 T00720044  RH  082%=      5-min Rain = 0
KMC5 240650Z 31010KT 07/04 A3001 RMK A01 T00730044  RH  082%=      5-min Rain = 0
KMC5 240651Z 32010KT 07/04 A3001 RMK A01 T00720044  RH  082%=      5-min Rain = 0
KMC5 240652Z 32011KT 07/04 A3001 RMK A01 T00720044  RH  082%=      5-min Rain = 0
KMC5 240653Z 32010KT 07/05 A3001 RMK A01 T00720045  RH  082%=      5-min Rain = 0
KMC5 240654Z 31010KT 07/05 A3001 RMK A01 T00720045  RH  083%=      5-min Rain = 0
KMC5 240655Z 31010KT 07/05 A3001 RMK A01 T00720045  RH  083%=      5-min Rain = 0
KMC5 240656Z 31010KT 07/05 A3001 RMK A01 T00720045  RH  083%=      5-min Rain = 0
KMC5 240657Z 32011KT 07/05 A3001 RMK A01 T00720045  RH  083%=      5-min Rain = 0
KMC5 240658Z 32011KT 07/04 A3001 RMK A01 T00720044  RH  083%=      5-min Rain = 0
KMC5 240659Z 32011KT 07/04 A3001 RMK A01 T00720044  RH  083%=      5-min Rain = 0
KMC5 240700Z 32011KT 07/04 A3001 RMK A01 T00720044  RH  082%=      5-min Rain = 0
KMC5 240701Z 32011KT 07/04 A3001 RMK A01 T00720043  RH  082%=      5-min Rain = 0
KMC5 240702Z 32010KT 07/04 A30 RMK A01 T00720044  RH  082%=      5-min Rain = 0
KMC5 240703Z 32010KT 07/04 A30 RMK A01 T00720044  RH  082%=      5-min Rain = 0
KMC5 240704Z 32009KT 07/04 A30 RMK A01 T00720044  RH  082%=      5-min Rain = 0
KMC5 240705Z 32010KT 07/04 A30 RMK A01 T00720044  RH  082%=      5-min Rain = 0
KMC5 240706Z 32010KT 07/04 A30 RMK A01 T00720044  RH  083%=      5-min Rain = 0
KMC5 240707Z 32012KT 07/04 A30 RMK A01 T00710044  RH  083%=      5-min Rain = 0
KMC5 240708Z 32011KT 07/04 A30 RMK A01 T00710043  RH  083%=      5-min Rain = 0
KMC5 240709Z 32011KT 07/04 A2999 RMK A01 T00710043  RH  082%=      5-min Rain = 0
KMC5 240710Z 32011KT 07/04 A2999 RMK A01 T00710043  RH  082%=      5-min Rain = 0
KMC5 240711Z 32011KT 07/04 A2999 RMK A01 T00710043  RH  082%=      5-min Rain = 0
KMC5 240712Z 32011KT 07/04 A2999 RMK A01 T00710043  RH  082%=      5-min Rain = 0
KMC5 240713Z 32010KT 07/04 A2999 RMK A01 T00710043  RH  082%=      5-min Rain = 0
KMC5 240714Z 32011KT 07/04 A2999 RMK A01 T00710043  RH  082%=      5-min Rain = 0
KMC5 240715Z 32012KT 07/04 A2999 RMK A01 T00710043  RH  082%=      5-min Rain = 0
KMC5 240716Z 32012KT 07/04 A2998 RMK A01 T00710042  RH  082%=      5-min Rain = 0
KMC5 240717Z 32011KT 07/04 A2999 RMK A01 T00710042  RH  082%=      5-min Rain = 0
KMC5 240718Z 31011KT 07/04 A2999 RMK A01 T00720043  RH  082%=      5-min Rain = 0
KMC5 240719Z 31011KT 07/04 A2999 RMK A01 T00710043  RH  082%=      5-min Rain = 0
KMC5 240720Z 31011KT 07/04 A2999 RMK A01 T00710043  RH  082%=      5-min Rain = 0
KMC5 240721Z 31012KT 07/04 A2999 RMK A01 T00710044  RH  083%=      5-min Rain = 0
KMC5 240722Z 31011KT 07/04 A2999 RMK A01 T00710043  RH  083%=      5-min Rain = 0
KMC5 240723Z 31012KT 07/04 A2999 RMK A01 T00710044  RH  083%=      5-min Rain = 0
KMC5 240724Z 31012KT 07/04 A2999 RMK A01 T00710044  RH  083%=      5-min Rain = 0
KMC5 240725Z 31011KT 07/04 A2999 RMK A01 T00710044  RH  083%=      5-min Rain = 0
KMC5 240726Z 31012KT 07/04 A2999 RMK A01 T00710044  RH  083%=      5-min Rain = 0
KMC5 240727Z 31011KT 07/05 A2999 RMK A01 T00710045  RH  084%=      5-min Rain = 0
KMC5 240728Z 31011KT 07/05 A30 RMK A01 T00700045  RH  084%=      5-min Rain = 0
KMC5 240729Z 31011KT 07/05 A30 RMK A01 T00700045  RH  084%=      5-min Rain = 0
KMC5 240730Z 31011KT 07/05 A30 RMK A01 T00690045  RH  085%=      5-min Rain = 0
KMC5 240731Z 31010KT 07/05 A30 RMK A01 T00690045  RH  085%=      5-min Rain = 0
KMC5 240732Z 31010KT 07/05 A30 RMK A01 T00690045  RH  085%=      5-min Rain = 0
KMC5 240733Z 31010KT 07/05 A30 RMK A01 T00690045  RH  085%=      5-min Rain = 0
KMC5 240734Z 31010KT 07/05 A30 RMK A01 T00690045  RH  085%=      5-min Rain = 0
KMC5 240735Z 31011KT 07/05 A30 RMK A01 T00690045  RH  085%=      5-min Rain = 0
KMC5 240736Z 31011KT 07/05 A30 RMK A01 T00690045  RH  085%=      5-min Rain = 0
KMC5 240737Z 31010KT 07/04 A30 RMK A01 T00690044  RH  084%=      5-min Rain = 0
KMC5 240738Z 31009KT 07/04 A30 RMK A01 T00690044  RH  084%=      5-min Rain = 0
KMC5 240739Z 31010KT 07/04 A30 RMK A01 T00680044  RH  085%=      5-min Rain = 0
KMC5 240740Z 31010KT 07/04 A30 RMK A01 T00680044  RH  084%=      5-min Rain = 0
KMC5 240741Z 31009KT 07/04 A30 RMK A01 T00680043  RH  084%=      5-min Rain = 0
KMC5 240742Z 31009KT 07/04 A30 RMK A01 T00680043  RH  084%=      5-min Rain = 0
KMC5 240743Z 31010KT 07/04 A30 RMK A01 T00680043  RH  084%=      5-min Rain = 0
KMC5 240744Z 31010KT 07/04 A30 RMK A01 T00680042  RH  084%=      5-min Rain = 0
KMC5 240745Z 31009KT 07/04 A30 RMK A01 T00680042  RH  083%=      5-min Rain = 0
KMC5 240746Z 30010KT 07/04 A30 RMK A01 T00680042  RH  084%=      5-min Rain = 0
KMC5 240747Z 30009KT 07/04 A30 RMK A01 T00680042  RH  084%=      5-min Rain = 0
KMC5 240748Z 30009KT 07/04 A30 RMK A01 T00670042  RH  084%=      5-min Rain = 0
KMC5 240749Z 30009KT 07/04 A30 RMK A01 T00670042  RH  084%=      5-min Rain = 0
KMC5 240750Z 30008KT 07/04 A30 RMK A01 T00670042  RH  084%=      5-min Rain = 0
KMC5 240751Z 30009KT 07/04 A30 RMK A01 T00660041  RH  084%=      5-min Rain = 0
KMC5 240752Z 30008KT 07/04 A30 RMK A01 T00660041  RH  084%=      5-min Rain = 0
KMC5 240753Z 29008KT 07/04 A30 RMK A01 T00660041  RH  084%=      5-min Rain = 0
KMC5 240754Z 30008KT 07/04 A30 RMK A01 T00650041  RH  085%=      5-min Rain = 0
KMC5 240755Z 29007KT 07/04 A30 RMK A01 T00650041  RH  085%=      5-min Rain = 0
KMC5 240756Z 29008KT 06/04 A30 RMK A01 T00640041  RH  085%=      5-min Rain = 0
KMC5 240757Z 29008KT 06/04 A30 RMK A01 T00640041  RH  085%=      5-min Rain = 0
KMC5 240758Z 29008KT 06/04 A30 RMK A01 T00640040  RH  085%=      5-min Rain = 0
KMC5 240759Z 29007KT 06/04 A30 RMK A01 T00640041  RH  085%=      5-min Rain = 0
KMC5 240800Z 29007KT 06/04 A3001 RMK A01 T00640040  RH  085%=      5-min Rain = 0
KMC5 240801Z 29008KT 06/04 A3001 RMK A01 T00640041  RH  085%=      5-min Rain = 0
KMC5 240802Z 29007KT 06/04 A3001 RMK A01 T00640041  RH  085%=      5-min Rain = 0
KMC5 240803Z 28007KT 06/04 A3001 RMK A01 T00640040  RH  085%=      5-min Rain = 0
KMC5 240804Z 28006KT 06/04 A3001 RMK A01 T00640040  RH  085%=      5-min Rain = 0
KMC5 240805Z 28007KT 06/04 A3001 RMK A01 T00630040  RH  085%=      5-min Rain = 0
KMC5 240806Z 28006KT 06/04 A3001 RMK A01 T00630040  RH  085%=      5-min Rain = 0
KMC5 240807Z 28006KT 06/04 A3001 RMK A01 T00630041  RH  086%=      5-min Rain = 0
KMC5 240808Z 29007KT 06/04 A30 RMK A01 T00620040  RH  086%=      5-min Rain = 0
KMC5 240809Z 29007KT 06/04 A3001 RMK A01 T00620041  RH  086%=      5-min Rain = 0
KMC5 240810Z 29008KT 06/04 A3001 RMK A01 T00620040  RH  086%=      5-min Rain = 0
KMC5 240811Z 29009KT 06/04 A3001 RMK A01 T00620040  RH  086%=      5-min Rain = 0
KMC5 240812Z 30009KT 06/04 A3001 RMK A01 T00620040  RH  086%=      5-min Rain = 0
KMC5 240813Z 30009KT 06/04 A3001 RMK A01 T00620041  RH  086%=      5-min Rain = 0
KMC5 240814Z 30009KT 06/04 A30 RMK A01 T00620041  RH  086%=      5-min Rain = 0
KMC5 240815Z 30009KT 06/04 A30 RMK A01 T00620041  RH  086%=      5-min Rain = 0
KMC5 240816Z 30009KT 06/04 A30 RMK A01 T00620041  RH  086%=      5-min Rain = 0
KMC5 240817Z 30009KT 06/04 A30 RMK A01 T00610041  RH  087%=      5-min Rain = 0
KMC5 240818Z 30009KT 06/04 A30 RMK A01 T00610041  RH  087%=      5-min Rain = 0
KMC5 240819Z 30009KT 06/04 A30 RMK A01 T00610040  RH  087%=      5-min Rain = 0
KMC5 240820Z 31009KT 06/04 A30 RMK A01 T00610040  RH  087%=      5-min Rain = 0
KMC5 240821Z 31008KT 06/04 A30 RMK A01 T00610040  RH  087%=      5-min Rain = 0
KMC5 240822Z 31008KT 06/04 A30 RMK A01 T00600040  RH  087%=      5-min Rain = 0
KMC5 240823Z 31009KT 06/04 A30 RMK A01 T00600040  RH  087%=      5-min Rain = 0
KMC5 240824Z 31008KT 06/04 A30 RMK A01 T00600040  RH  087%=      5-min Rain = 0
KMC5 240825Z 31008KT 06/04 A30 RMK A01 T00600040  RH  087%=      5-min Rain = 0
KMC5 240826Z 31008KT 06/04 A30 RMK A01 T00600040  RH  087%=      5-min Rain = 0
KMC5 240827Z 31008KT 06/04 A30 RMK A01 T00610040  RH  086%=      5-min Rain = 0
KMC5 240828Z 32008KT 06/04 A30 RMK A01 T00620040  RH  086%=      5-min Rain = 0
KMC5 240829Z 32007KT 06/04 A30 RMK A01 T00620040  RH  085%=      5-min Rain = 0
KMC5 240830Z 32007KT 06/04 A30 RMK A01 T00620039  RH  085%=      5-min Rain = 0
KMC5 240831Z 33007KT 06/04 A3001 RMK A01 T00630039  RH  085%=      5-min Rain = 0
KMC5 240832Z 34005KT 06/04 A3001 RMK A01 T00620039  RH  085%=      5-min Rain = 0
KMC5 240833Z 35004KT 06/04 A3001 RMK A01 T00620039  RH  085%=      5-min Rain = 0
KMC5 240834Z 02003KT 06/04 A3001 RMK A01 T00620039  RH  085%=      5-min Rain = 0
KMC5 240835Z 08003KT 06/04 A3001 RMK A01 T00610038  RH  086%=      5-min Rain = 0
KMC5 240836Z 09003KT 06/04 A3001 RMK A01 T00590038  RH  086%=      5-min Rain = 0
KMC5 240837Z 09004KT 06/04 A3001 RMK A01 T00580038  RH  087%=      5-min Rain = 0
KMC5 240838Z 08005KT 06/04 A3001 RMK A01 T00560037  RH  087%=      5-min Rain = 0
KMC5 240839Z 07005KT 06/04 A3001 RMK A01 T00550037  RH  088%=      5-min Rain = 0
KMC5 240840Z 07005KT 05/04 A3001 RMK A01 T00540037  RH  089%=      5-min Rain = 0
KMC5 240841Z 05005KT 05/04 A3001 RMK A01 T00540037  RH  089%=      5-min Rain = 0
KMC5 240842Z 05005KT 05/04 A3001 RMK A01 T00540038  RH  090%=      5-min Rain = 0
KMC5 240843Z 03004KT 05/04 A3001 RMK A01 T00540039  RH  090%=      5-min Rain = 0
KMC5 240844Z 02004KT 06/04 A3001 RMK A01 T00550039  RH  089%=      5-min Rain = 0
KMC5 240845Z 03003KT 06/04 A3001 RMK A01 T00560039  RH  089%=      5-min Rain = 0
KMC5 240846Z 02004KT 06/04 A3001 RMK A01 T00560039  RH  089%=      5-min Rain = 0
KMC5 240847Z 02004KT 06/04 A3001 RMK A01 T00570039  RH  088%=      5-min Rain = 0
KMC5 240848Z 04003KT 06/04 A3001 RMK A01 T00580039  RH  088%=      5-min Rain = 0
KMC5 240849Z 03004KT 06/04 A3001 RMK A01 T00590039  RH  087%=      5-min Rain = 0
KMC5 240850Z 05003KT 06/04 A3001 RMK A01 T00590039  RH  087%=      5-min Rain = 0
KMC5 240851Z 08003KT 06/04 A3001 RMK A01 T00590040  RH  088%=      5-min Rain = 0
KMC5 240852Z 08003KT 06/04 A3001 RMK A01 T00580039  RH  088%=      5-min Rain = 0
KMC5 240853Z 08003KT 06/04 A3001 RMK A01 T00570039  RH  088%=      5-min Rain = 0
KMC5 240854Z 08003KT 06/04 A3001 RMK A01 T00570039  RH  088%=      5-min Rain = 0
KMC5 240855Z 07002KT 06/04 A3001 RMK A01 T00580039  RH  088%=      5-min Rain = 0
KMC5 240856Z 05001KT 06/04 A3001 RMK A01 T00570039  RH  088%=      5-min Rain = 0
KMC5 240857Z 03002KT 06/04 A3001 RMK A01 T00580038  RH  088%=      5-min Rain = 0
KMC5 240858Z 01002KT 06/04 A30 RMK A01 T00580039  RH  087%=      5-min Rain = 0
KMC5 240859Z 01002KT 06/04 A30 RMK A01 T00590039  RH  087%=      5-min Rain = 0
KMC5 240900Z 01003KT 06/04 A30 RMK A01 T00590039  RH  087%=      5-min Rain = 0
KMC5 240901Z 00002KT 06/04 A30 RMK A01 T00590038  RH  086%=      5-min Rain = 0
KMC5 240902Z 36002KT 06/04 A30 RMK A01 T00600038  RH  086%=      5-min Rain = 0
KMC5 240903Z 36002KT 06/04 A30 RMK A01 T00590039  RH  086%=      5-min Rain = 0
KMC5 240904Z 00001KT 06/04 A30 RMK A01 T00590038  RH  087%=      5-min Rain = 0
KMC5 240905Z 04001KT 06/04 A30 RMK A01 T00590038  RH  087%=      5-min Rain = 0
KMC5 240906Z 05001KT 06/04 A30 RMK A01 T00590038  RH  086%=      5-min Rain = 0
KMC5 240907Z 03000KT 06/04 A30 RMK A01 T00590038  RH  086%=      5-min Rain = 0
KMC5 240908Z 03000KT 06/04 A30 RMK A01 T00590038  RH  086%=      5-min Rain = 0
KMC5 240909Z 03000KT 06/04 A30 RMK A01 T00590038  RH  086%=      5-min Rain = 0
KMC5 240910Z 02001KT 06/04 A30 RMK A01 T00590039  RH  087%=      5-min Rain = 0
KMC5 240911Z 00001KT 06/04 A30 RMK A01 T00600039  RH  087%=      5-min Rain = 0
KMC5 240912Z 35002KT 06/04 A30 RMK A01 T00590039  RH  087%=      5-min Rain = 0
KMC5 240913Z 36002KT 06/04 A30 RMK A01 T00600039  RH  086%=      5-min Rain = 0
KMC5 240914Z 34003KT 06/04 A2999 RMK A01 T00610038  RH  086%=      5-min Rain = 0
KMC5 240915Z 35003KT 06/04 A2999 RMK A01 T00610038  RH  085%=      5-min Rain = 0
KMC5 240916Z 35003KT 06/04 A2999 RMK A01 T00610038  RH  085%=      5-min Rain = 0
KMC5 240917Z 35003KT 06/04 A2999 RMK A01 T00610038  RH  085%=      5-min Rain = 0
KMC5 240918Z 35003KT 06/04 A2999 RMK A01 T00600039  RH  086%=      5-min Rain = 0
KMC5 240919Z 35003KT 06/04 A2999 RMK A01 T00590038  RH  086%=      5-min Rain = 0
KMC5 240920Z 34003KT 06/04 A2999 RMK A01 T00590038  RH  087%=      5-min Rain = 0
KMC5 240921Z 33003KT 06/04 A2999 RMK A01 T00580038  RH  087%=      5-min Rain = 0
KMC5 240922Z 32002KT 06/04 A2999 RMK A01 T00580038  RH  087%=      5-min Rain = 0
KMC5 240923Z 31002KT 06/04 A2999 RMK A01 T00580038  RH  087%=      5-min Rain = 0
KMC5 240924Z 30002KT 06/04 A2999 RMK A01 T00580038  RH  087%=      5-min Rain = 0
KMC5 240925Z 29002KT 06/04 A30 RMK A01 T00590038  RH  086%=      5-min Rain = 0
KMC5 240926Z 27002KT 06/04 A30 RMK A01 T00590038  RH  086%=      5-min Rain = 0
KMC5 240927Z 26001KT 06/04 A30 RMK A01 T00600038  RH  086%=      5-min Rain = 0
KMC5 240928Z 26001KT 06/04 A30 RMK A01 T00600037  RH  086%=      5-min Rain = 0
KMC5 240929Z 00000KT 06/04 A30 RMK A01 T00590037  RH  086%=      5-min Rain = 0
KMC5 240930Z 00000KT 06/04 A30 RMK A01 T00580036  RH  086%=      5-min Rain = 0
KMC5 240931Z 00000KT 06/03 A30 RMK A01 T00560034  RH  086%=      5-min Rain = 0
KMC5 240932Z 00001KT 05/04 A30 RMK A01 T00530035  RH  088%=      5-min Rain = 0
KMC5 240933Z 35001KT 05/04 A30 RMK A01 T00530036  RH  089%=      5-min Rain = 0
KMC5 240934Z 34002KT 05/04 A30 RMK A01 T00520036  RH  089%=      5-min Rain = 0
KMC5 240935Z 35002KT 05/04 A30 RMK A01 T00520036  RH  090%=      5-min Rain = 0
KMC5 240936Z 01001KT 05/04 A30 RMK A01 T00520036  RH  089%=      5-min Rain = 0
KMC5 240937Z 00002KT 05/04 A30 RMK A01 T00520036  RH  089%=      5-min Rain = 0
KMC5 240938Z 35002KT 05/04 A30 RMK A01 T00520036  RH  089%=      5-min Rain = 0
KMC5 240939Z 35001KT 05/04 A30 RMK A01 T00520037  RH  090%=      5-min Rain = 0
KMC5 240940Z 35001KT 05/04 A30 RMK A01 T00530037  RH  089%=      5-min Rain = 0
KMC5 240941Z 35001KT 05/04 A30 RMK A01 T00530037  RH  089%=      5-min Rain = 0
KMC5 240942Z 35001KT 05/04 A30 RMK A01 T00530037  RH  089%=      5-min Rain = 0
KMC5 240943Z 35000KT 05/04 A30 RMK A01 T00540037  RH  089%=      5-min Rain = 0
KMC5 240944Z 35001KT 06/04 A2999 RMK A01 T00550038  RH  089%=      5-min Rain = 0
KMC5 240945Z 35001KT 06/04 A2999 RMK A01 T00560038  RH  088%=      5-min Rain = 0
KMC5 240946Z 35001KT 06/04 A2999 RMK A01 T00570038  RH  088%=      5-min Rain = 0
KMC5 240947Z 35002KT 06/04 A2999 RMK A01 T00580038  RH  087%=      5-min Rain = 0
KMC5 240948Z 35002KT 06/04 A30 RMK A01 T00590038  RH  087%=      5-min Rain = 0
KMC5 240949Z 35003KT 06/04 A30 RMK A01 T00590038  RH  087%=      5-min Rain = 0
KMC5 240950Z 35003KT 06/04 A30 RMK A01 T00580038  RH  087%=      5-min Rain = 0
KMC5 240951Z 35003KT 06/04 A30 RMK A01 T00570038  RH  087%=      5-min Rain = 0
KMC5 240952Z 35003KT 06/04 A30 RMK A01 T00560038  RH  088%=      5-min Rain = 0
KMC5 240953Z 34003KT 06/04 A30 RMK A01 T00560039  RH  088%=      5-min Rain = 0
KMC5 240954Z 34004KT 06/04 A30 RMK A01 T00560038  RH  088%=      5-min Rain = 0
KMC5 240955Z 35004KT 06/04 A30 RMK A01 T00560038  RH  088%=      5-min Rain = 0
KMC5 240956Z 00004KT 06/04 A2999 RMK A01 T00560038  RH  088%=      5-min Rain = 0
KMC5 240957Z 01004KT 06/04 A2999 RMK A01 T00560038  RH  088%=      5-min Rain = 0
KMC5 240958Z 03004KT 06/04 A2999 RMK A01 T00550038  RH  088%=      5-min Rain = 0
KMC5 240959Z 03004KT 06/04 A2999 RMK A01 T00550038  RH  089%=      5-min Rain = 0
KMC5 241000Z 02004KT 05/04 A2999 RMK A01 T00540038  RH  089%=      5-min Rain = 0
KMC5 241001Z 01004KT 05/04 A2999 RMK A01 T00540038  RH  089%=      5-min Rain = 0
KMC5 241002Z 36004KT 05/04 A2999 RMK A01 T00540038  RH  089%=      5-min Rain = 0
KMC5 241003Z 34004KT 05/04 A30 RMK A01 T00540038  RH  089%=      5-min Rain = 0
KMC5 241004Z 33005KT 05/04 A30 RMK A01 T00540038  RH  089%=      5-min Rain = 0
KMC5 241005Z 33005KT 05/04 A30 RMK A01 T00540037  RH  089%=      5-min Rain = 0
KMC5 241006Z 33005KT 06/04 A2999 RMK A01 T00550038  RH  089%=      5-min Rain = 0
KMC5 241007Z 34005KT 06/04 A2999 RMK A01 T00550037  RH  088%=      5-min Rain = 0
KMC5 241008Z 34004KT 06/04 A2999 RMK A01 T00560037  RH  088%=      5-min Rain = 0
KMC5 241009Z 34004KT 06/04 A2999 RMK A01 T00570038  RH  087%=      5-min Rain = 0
KMC5 241010Z 34004KT 06/04 A2999 RMK A01 T00580037  RH  087%=      5-min Rain = 0
KMC5 241011Z 33003KT 06/04 A2999 RMK A01 T00580037  RH  086%=      5-min Rain = 0
KMC5 241012Z 32003KT 06/04 A30 RMK A01 T00580036  RH  086%=      5-min Rain = 0
KMC5 241013Z 31004KT 06/04 A30 RMK A01 T00590036  RH  085%=      5-min Rain = 0
KMC5 241014Z 31003KT 06/04 A30 RMK A01 T00590036  RH  085%=      5-min Rain = 0
KMC5 241015Z 30003KT 06/04 A30 RMK A01 T00590036  RH  085%=      5-min Rain = 0
KMC5 241016Z 30002KT 06/04 A30 RMK A01 T00580036  RH  086%=      5-min Rain = 0
KMC5 241017Z 29002KT 06/04 A30 RMK A01 T00570036  RH  087%=      5-min Rain = 0
KMC5 241018Z 28002KT 06/04 A30 RMK A01 T00570036  RH  087%=      5-min Rain = 0
KMC5 241019Z 29002KT 06/04 A30 RMK A01 T00570036  RH  086%=      5-min Rain = 0
KMC5 241020Z 29003KT 06/04 A30 RMK A01 T00580036  RH  086%=      5-min Rain = 0
KMC5 241021Z 29003KT 06/04 A30 RMK A01 T00580036  RH  086%=      5-min Rain = 0
KMC5 241022Z 30004KT 06/04 A2999 RMK A01 T00590036  RH  085%=      5-min Rain = 0
KMC5 241023Z 30004KT 06/04 A2999 RMK A01 T00600035  RH  084%=      5-min Rain = 0
KMC5 241024Z 31005KT 06/04 A2999 RMK A01 T00600035  RH  084%=      5-min Rain = 0
KMC5 241025Z 31006KT 06/04 A2999 RMK A01 T00600035  RH  084%=      5-min Rain = 0
KMC5 241026Z 31006KT 06/04 A2999 RMK A01 T00600035  RH  084%=      5-min Rain = 0
KMC5 241027Z 31006KT 06/04 A2999 RMK A01 T00590035  RH  084%=      5-min Rain = 0
KMC5 241028Z 30006KT 06/04 A2999 RMK A01 T00580035  RH  085%=      5-min Rain = 0
KMC5 241029Z 30006KT 06/04 A30 RMK A01 T00570035  RH  086%=      5-min Rain = 0
KMC5 241030Z 29005KT 06/04 A30 RMK A01 T00560035  RH  087%=      5-min Rain = 0
KMC5 241031Z 29005KT 06/04 A30 RMK A01 T00560036  RH  087%=      5-min Rain = 0
KMC5 241032Z 28005KT 06/04 A30 RMK A01 T00550035  RH  087%=      5-min Rain = 0
KMC5 241033Z 27005KT 06/04 A30 RMK A01 T00550035  RH  087%=      5-min Rain = 0
KMC5 241034Z 27004KT 05/04 A2999 RMK A01 T00530035  RH  088%=      5-min Rain = 0
KMC5 241035Z 28004KT 05/04 A2999 RMK A01 T00520035  RH  089%=      5-min Rain = 0
KMC5 241036Z 28005KT 05/04 A2999 RMK A01 T00500035  RH  090%=      5-min Rain = 0
KMC5 241037Z 29005KT 05/04 A2999 RMK A01 T00500036  RH  090%=      5-min Rain = 0
KMC5 241038Z 29005KT 05/04 A2999 RMK A01 T00510036  RH  090%=      5-min Rain = 0
KMC5 241039Z 29006KT 05/04 A2999 RMK A01 T00520036  RH  089%=      5-min Rain = 0
KMC5 241040Z 29006KT 05/04 A2999 RMK A01 T00530036  RH  089%=      5-min Rain = 0
KMC5 241041Z 30006KT 05/04 A2999 RMK A01 T00530036  RH  089%=      5-min Rain = 0
KMC5 241042Z 30006KT 05/04 A2998 RMK A01 T00540036  RH  088%=      5-min Rain = 0
KMC5 241043Z 29006KT 05/04 A2998 RMK A01 T00540036  RH  088%=      5-min Rain = 0
KMC5 241044Z 29006KT 05/04 A2998 RMK A01 T00540036  RH  089%=      5-min Rain = 0
KMC5 241045Z 29007KT 05/04 A2998 RMK A01 T00540036  RH  089%=      5-min Rain = 0
KMC5 241046Z 30007KT 05/04 A2998 RMK A01 T00540036  RH  089%=      5-min Rain = 0
KMC5 241047Z 30008KT 05/04 A2998 RMK A01 T00540037  RH  089%=      5-min Rain = 0
KMC5 241048Z 30008KT 05/04 A2998 RMK A01 T00530037  RH  089%=      5-min Rain = 0
KMC5 241049Z 31008KT 05/04 A2998 RMK A01 T00530037  RH  089%=      5-min Rain = 0
KMC5 241050Z 31009KT 05/04 A2998 RMK A01 T00530036  RH  089%=      5-min Rain = 0
KMC5 241051Z 31009KT 05/04 A2998 RMK A01 T00540036  RH  088%=      5-min Rain = 0
KMC5 241052Z 30009KT 05/04 A2998 RMK A01 T00540036  RH  088%=      5-min Rain = 0
KMC5 241053Z 30009KT 05/04 A2998 RMK A01 T00540035  RH  087%=      5-min Rain = 0
KMC5 241054Z 30009KT 06/04 A2998 RMK A01 T00550035  RH  087%=      5-min Rain = 0
KMC5 241055Z 30008KT 06/04 A2998 RMK A01 T00550035  RH  087%=      5-min Rain = 0
KMC5 241056Z 30007KT 06/04 A2997 RMK A01 T00560035  RH  087%=      5-min Rain = 0
KMC5 241057Z 30007KT 06/03 A2997 RMK A01 T00550034  RH  086%=      5-min Rain = 0
KMC5 241058Z 30006KT 06/04 A2997 RMK A01 T00560035  RH  086%=      5-min Rain = 0
KMC5 241059Z 30006KT 06/04 A2997 RMK A01 T00560035  RH  086%=      5-min Rain = 0
KMC5 241100Z 29005KT 06/03 A2998 RMK A01 T00560034  RH  086%=      5-min Rain = 0
KMC5 241101Z 29005KT 06/03 A2998 RMK A01 T00560034  RH  086%=      5-min Rain = 0
KMC5 241102Z 28005KT 06/03 A2998 RMK A01 T00560034  RH  086%=      5-min Rain = 0
KMC5 241103Z 27005KT 06/03 A2998 RMK A01 T00560034  RH  086%=      5-min Rain = 0
KMC5 241104Z 25004KT 06/03 A2998 RMK A01 T00560034  RH  086%=      5-min Rain = 0
KMC5 241105Z 23005KT 06/03 A2998 RMK A01 T00550034  RH  086%=      5-min Rain = 0
KMC5 241106Z 23005KT 05/03 A2998 RMK A01 T00530034  RH  087%=      5-min Rain = 0
KMC5 241107Z 23006KT 05/03 A2998 RMK A01 T00530034  RH  087%=      5-min Rain = 0
KMC5 241108Z 24006KT 05/03 A2998 RMK A01 T00540034  RH  087%=      5-min Rain = 0
KMC5 241109Z 25006KT 05/03 A2998 RMK A01 T00540034  RH  087%=      5-min Rain = 0
KMC5 241110Z 26005KT 05/03 A2999 RMK A01 T00530034  RH  087%=      5-min Rain = 0
KMC5 241111Z 26005KT 05/03 A2999 RMK A01 T00520033  RH  088%=      5-min Rain = 0
KMC5 241112Z 27005KT 05/03 A2999 RMK A01 T00520034  RH  088%=      5-min Rain = 0
KMC5 241113Z 27005KT 05/03 A2999 RMK A01 T00520034  RH  088%=      5-min Rain = 0
KMC5 241114Z 28005KT 05/03 A2999 RMK A01 T00520034  RH  088%=      5-min Rain = 0
KMC5 241115Z 28006KT 05/03 A2999 RMK A01 T00520033  RH  088%=      5-min Rain = 0
KMC5 241116Z 28006KT 05/03 A2999 RMK A01 T00520033  RH  088%=      5-min Rain = 0
KMC5 241117Z 28006KT 05/03 A2999 RMK A01 T00520033  RH  087%=      5-min Rain = 0
KMC5 241118Z 28006KT 05/03 A2999 RMK A01 T00530032  RH  086%=      5-min Rain = 0
KMC5 241119Z 28006KT 05/03 A2999 RMK A01 T00540032  RH  086%=      5-min Rain = 0
KMC5 241120Z 28006KT 06/03 A2998 RMK A01 T00550031  RH  085%=      5-min Rain = 0
KMC5 241121Z 28006KT 06/03 A2998 RMK A01 T00560031  RH  084%=      5-min Rain = 0
KMC5 241122Z 27006KT 06/03 A2998 RMK A01 T00560032  RH  084%=      5-min Rain = 0
KMC5 241123Z 28006KT 06/03 A2998 RMK A01 T00560032  RH  085%=      5-min Rain = 0
KMC5 241124Z 28006KT 06/03 A2998 RMK A01 T00550033  RH  085%=      5-min Rain = 0
KMC5 241125Z 28006KT 06/03 A2998 RMK A01 T00550033  RH  086%=      5-min Rain = 0
KMC5 241126Z 28006KT 05/03 A2998 RMK A01 T00540032  RH  086%=      5-min Rain = 0
KMC5 241127Z 29006KT 05/03 A2998 RMK A01 T00540032  RH  086%=      5-min Rain = 0
KMC5 241128Z 29006KT 06/03 A2998 RMK A01 T00550032  RH  085%=      5-min Rain = 0
KMC5 241129Z 30006KT 06/03 A2998 RMK A01 T00560031  RH  084%=      5-min Rain = 0
KMC5 241130Z 30006KT 06/03 A2998 RMK A01 T00560032  RH  084%=      5-min Rain = 0
KMC5 241131Z 30007KT 06/03 A2998 RMK A01 T00570032  RH  084%=      5-min Rain = 0
KMC5 241132Z 30007KT 06/03 A2998 RMK A01 T00570032  RH  084%=      5-min Rain = 0
KMC5 241133Z 30007KT 06/03 A2998 RMK A01 T00570032  RH  084%=      5-min Rain = 0
KMC5 241134Z 30007KT 06/03 A2998 RMK A01 T00570032  RH  084%=      5-min Rain = 0
KMC5 241135Z 30007KT 06/03 A2998 RMK A01 T00570032  RH  084%=      5-min Rain = 0
KMC5 241136Z 30007KT 06/03 A2997 RMK A01 T00570032  RH  084%=      5-min Rain = 0
KMC5 241137Z 30007KT 06/03 A2997 RMK A01 T00580032  RH  083%=      5-min Rain = 0
KMC5 241138Z 30007KT 06/03 A2997 RMK A01 T00580032  RH  083%=      5-min Rain = 0
KMC5 241139Z 30008KT 06/03 A2997 RMK A01 T00580032  RH  083%=      5-min Rain = 0
KMC5 241140Z 30008KT 06/03 A2997 RMK A01 T00580032  RH  083%=      5-min Rain = 0
KMC5 241141Z 30009KT 06/03 A2997 RMK A01 T00580031  RH  083%=      5-min Rain = 0
KMC5 241142Z 30008KT 06/03 A2997 RMK A01 T00580031  RH  083%=      5-min Rain = 0
KMC5 241143Z 30008KT 06/03 A2997 RMK A01 T00590031  RH  082%=      5-min Rain = 0
KMC5 241144Z 30008KT 06/03 A2997 RMK A01 T00590031  RH  082%=      5-min Rain = 0
KMC5 241145Z 30008KT 06/03 A2997 RMK A01 T00590030  RH  082%=      5-min Rain = 0
KMC5 241146Z 30008KT 06/03 A2997 RMK A01 T00600030  RH  081%=      5-min Rain = 0
KMC5 241147Z 30008KT 06/03 A2997 RMK A01 T00600029  RH  081%=      5-min Rain = 0
KMC5 241148Z 30008KT 06/03 A2998 RMK A01 T00610029  RH  080%=      5-min Rain = 0
KMC5 241149Z 30008KT 06/03 A2998 RMK A01 T00620029  RH  080%=      5-min Rain = 0
KMC5 241150Z 30008KT 06/03 A2998 RMK A01 T00620030  RH  080%=      5-min Rain = 0
KMC5 241151Z 29008KT 06/03 A2998 RMK A01 T00610030  RH  080%=      5-min Rain = 0
KMC5 241152Z 29008KT 06/03 A2998 RMK A01 T00610030  RH  081%=      5-min Rain = 0
KMC5 241153Z 29008KT 06/03 A2998 RMK A01 T00610030  RH  080%=      5-min Rain = 0
KMC5 241154Z 29008KT 06/03 A2998 RMK A01 T00610030  RH  080%=      5-min Rain = 0
KMC5 241155Z 29008KT 06/03 A2998 RMK A01 T00610031  RH  081%=      5-min Rain = 0
KMC5 241156Z 29007KT 06/03 A2998 RMK A01 T00610030  RH  080%=      5-min Rain = 0
KMC5 241157Z 29007KT 06/03 A2998 RMK A01 T00620030  RH  080%=      5-min Rain = 0
KMC5 241158Z 29007KT 06/03 A2998 RMK A01 T00630030  RH  079%=      5-min Rain = 0
KMC5 241159Z 29007KT 06/03 A2998 RMK A01 T00630030  RH  080%=      5-min Rain = 0
KMC5 241200Z 27006KT 06/03 A2998 RMK A01 T00630030  RH  079%=      5-min Rain = 0
KMC5 241201Z 27006KT 06/03 A2998 RMK A01 T00630031  RH  080%=      5-min Rain = 0
KMC5 241202Z 27006KT 06/03 A2998 RMK A01 T00630031  RH  080%=      5-min Rain = 0
KMC5 241203Z 26004KT 06/03 A2998 RMK A01 T00620032  RH  081%=      5-min Rain = 0
KMC5 241204Z 25004KT 06/03 A2998 RMK A01 T00590031  RH  082%=      5-min Rain = 0
KMC5 241205Z 25004KT 06/03 A2998 RMK A01 T00560031  RH  084%=      5-min Rain = 0
KMC5 241206Z 25004KT 05/03 A2998 RMK A01 T00540031  RH  085%=      5-min Rain = 0
KMC5 241207Z 25004KT 05/03 A2998 RMK A01 T00530031  RH  086%=      5-min Rain = 0
KMC5 241208Z 26004KT 05/03 A2998 RMK A01 T00520031  RH  087%=      5-min Rain = 0
KMC5 241209Z 26005KT 05/03 A2998 RMK A01 T00510032  RH  087%=      5-min Rain = 0
KMC5 241210Z 27004KT 05/03 A2998 RMK A01 T00510032  RH  087%=      5-min Rain = 0
KMC5 241211Z 27004KT 05/03 A2998 RMK A01 T00510032  RH  088%=      5-min Rain = 0
KMC5 241212Z 25004KT 05/03 A2998 RMK A01 T00510032  RH  088%=      5-min Rain = 0
KMC5 241213Z 22004KT 05/03 A2999 RMK A01 T00500032  RH  088%=      5-min Rain = 0
KMC5 241214Z 22004KT 05/03 A2999 RMK A01 T00500032  RH  088%=      5-min Rain = 0
KMC5 241215Z 23005KT 05/03 A2999 RMK A01 T00500031  RH  088%=      5-min Rain = 0
KMC5 241216Z 23005KT 05/03 A2999 RMK A01 T00500031  RH  088%=      5-min Rain = 0
KMC5 241217Z 24006KT 05/03 A2999 RMK A01 T00500032  RH  088%=      5-min Rain = 0
KMC5 241218Z 24006KT 05/03 A2999 RMK A01 T00500033  RH  089%=      5-min Rain = 0
KMC5 241219Z 24006KT 05/03 A2999 RMK A01 T00500033  RH  089%=      5-min Rain = 0
KMC5 241220Z 24006KT 05/03 A2999 RMK A01 T00500033  RH  089%=      5-min Rain = 0
KMC5 241221Z 24006KT 05/03 A2999 RMK A01 T00510034  RH  089%=      5-min Rain = 0
KMC5 241222Z 25005KT 05/03 A2999 RMK A01 T00510034  RH  089%=      5-min Rain = 0
KMC5 241223Z 25005KT 05/03 A2999 RMK A01 T00500034  RH  089%=      5-min Rain = 0
KMC5 241224Z 26005KT 05/03 A2999 RMK A01 T00500034  RH  089%=      5-min Rain = 0
KMC5 241225Z 26005KT 05/03 A2999 RMK A01 T00490034  RH  090%=      5-min Rain = 0
KMC5 241226Z 27006KT 05/03 A2999 RMK A01 T00490034  RH  090%=      5-min Rain = 0
KMC5 241227Z 27006KT 05/03 A2999 RMK A01 T00490034  RH  090%=      5-min Rain = 0
KMC5 241228Z 28007KT 05/03 A2999 RMK A01 T00500034  RH  090%=      5-min Rain = 0
KMC5 241229Z 27007KT 05/04 A2999 RMK A01 T00510035  RH  089%=      5-min Rain = 0
KMC5 241230Z 27007KT 05/04 A2999 RMK A01 T00520036  RH  089%=      5-min Rain = 0
KMC5 241231Z 27007KT 05/04 A2999 RMK A01 T00530036  RH  089%=      5-min Rain = 0
KMC5 241232Z 27007KT 05/04 A2999 RMK A01 T00540035  RH  088%=      5-min Rain = 0
KMC5 241233Z 26006KT 06/04 A2999 RMK A01 T00550036  RH  088%=      5-min Rain = 0
KMC5 241234Z 26006KT 06/04 A2999 RMK A01 T00550037  RH  088%=      5-min Rain = 0
KMC5 241235Z 25006KT 06/04 A2999 RMK A01 T00550037  RH  088%=      5-min Rain = 0
KMC5 241236Z 24004KT 06/04 A2999 RMK A01 T00550038  RH  089%=      5-min Rain = 0
KMC5 241237Z 24004KT 05/04 A2999 RMK A01 T00530037  RH  089%=      5-min Rain = 0
KMC5 241238Z 24004KT 05/04 A2999 RMK A01 T00520037  RH  090%=      5-min Rain = 0
KMC5 241239Z 25004KT 05/04 A2999 RMK A01 T00510037  RH  090%=      5-min Rain = 0
KMC5 241240Z 26004KT 05/04 A30 RMK A01 T00500037  RH  091%=      5-min Rain = 0
KMC5 241241Z 27005KT 05/04 A30 RMK A01 T00500038  RH  092%=      5-min Rain = 0
KMC5 241242Z 27005KT 05/04 A30 RMK A01 T00500039  RH  092%=      5-min Rain = 0
KMC5 241243Z 27005KT 05/04 A30 RMK A01 T00510040  RH  093%=      5-min Rain = 0
KMC5 241244Z 27005KT 05/04 A30 RMK A01 T00520040  RH  092%=      5-min Rain = 0
KMC5 241245Z 27005KT 05/04 A30 RMK A01 T00540041  RH  092%=      5-min Rain = 0
KMC5 241246Z 27004KT 05/04 A30 RMK A01 T00540040  RH  091%=      5-min Rain = 0
KMC5 241247Z 27004KT 05/04 A30 RMK A01 T00540040  RH  090%=      5-min Rain = 0
KMC5 241248Z 26004KT 06/04 A30 RMK A01 T00550040  RH  090%=      5-min Rain = 0
KMC5 241249Z 26003KT 06/04 A30 RMK A01 T00550039  RH  090%=      5-min Rain = 0
KMC5 241250Z 25003KT 06/04 A30 RMK A01 T00550040  RH  090%=      5-min Rain = 0
KMC5 241251Z 26003KT 06/04 A30 RMK A01 T00550040  RH  090%=      5-min Rain = 0
KMC5 241252Z 25003KT 06/04 A30 RMK A01 T00550041  RH  091%=      5-min Rain = 0
KMC5 241253Z 26003KT 06/04 A30 RMK A01 T00550041  RH  091%=      5-min Rain = 0
KMC5 241254Z 26003KT 06/04 A30 RMK A01 T00550041  RH  091%=      5-min Rain = 0
KMC5 241255Z 25004KT 06/04 A30 RMK A01 T00550042  RH  091%=      5-min Rain = 0
KMC5 241256Z 24003KT 06/04 A30 RMK A01 T00550042  RH  092%=      5-min Rain = 0
KMC5 241257Z 24003KT 06/04 A30 RMK A01 T00550042  RH  091%=      5-min Rain = 0
KMC5 241258Z 24003KT 06/04 A30 RMK A01 T00550041  RH  091%=      5-min Rain = 0
KMC5 241259Z 24004KT 06/04 A30 RMK A01 T00550041  RH  091%=      5-min Rain = 0
KMC5 241300Z 23005KT 06/04 A30 RMK A01 T00550041  RH  091%=      5-min Rain = 0
KMC5 241301Z 23005KT 06/04 A3001 RMK A01 T00550040  RH  091%=      5-min Rain = 0
KMC5 241302Z 23004KT 06/04 A3001 RMK A01 T00550041  RH  091%=      5-min Rain = 0
KMC5 241303Z 24004KT 06/04 A3001 RMK A01 T00550041  RH  090%=      5-min Rain = 0
KMC5 241304Z 25004KT 06/04 A3001 RMK A01 T00550041  RH  091%=      5-min Rain = 0
KMC5 241305Z 26003KT 06/04 A3001 RMK A01 T00550041  RH  091%=      5-min Rain = 0
KMC5 241306Z 27003KT 06/04 A3001 RMK A01 T00550041  RH  091%=      5-min Rain = 0
KMC5 241307Z 28003KT 06/04 A3001 RMK A01 T00550042  RH  091%=      5-min Rain = 0
KMC5 241308Z 27003KT 06/04 A3001 RMK A01 T00550042  RH  091%=      5-min Rain = 0
KMC5 241309Z 27004KT 06/04 A3001 RMK A01 T00560042  RH  091%=      5-min Rain = 0
KMC5 241310Z 27003KT 06/04 A3001 RMK A01 T00560042  RH  091%=      5-min Rain = 0
KMC5 241311Z 28004KT 06/04 A3001 RMK A01 T00570041  RH  089%=      5-min Rain = 0
KMC5 241312Z 28003KT 06/04 A3001 RMK A01 T00580039  RH  087%=      5-min Rain = 0
KMC5 241313Z 28002KT 06/04 A3001 RMK A01 T00600039  RH  087%=      5-min Rain = 0
KMC5 241314Z 27003KT 06/04 A3001 RMK A01 T00600041  RH  088%=      5-min Rain = 0
KMC5 241315Z 26004KT 06/04 A3001 RMK A01 T00600041  RH  088%=      5-min Rain = 0
KMC5 241316Z 26004KT 06/04 A3001 RMK A01 T00610042  RH  088%=      5-min Rain = 0
KMC5 241317Z 25005KT 06/04 A3001 RMK A01 T00610042  RH  088%=      5-min Rain = 0
KMC5 241318Z 26005KT 06/04 A3001 RMK A01 T00620042  RH  087%=      5-min Rain = 0
KMC5 241319Z 26005KT 06/04 A3001 RMK A01 T00620042  RH  087%=      5-min Rain = 0
KMC5 241320Z 27005KT 06/04 A3001 RMK A01 T00630042  RH  087%=      5-min Rain = 0
KMC5 241321Z 27005KT 06/04 A3001 RMK A01 T00630041  RH  085%=      5-min Rain = 0
KMC5 241322Z 28005KT 06/04 A3001 RMK A01 T00640039  RH  084%=      5-min Rain = 0
KMC5 241323Z 28005KT 06/04 A3001 RMK A01 T00640040  RH  085%=      5-min Rain = 0
KMC5 241324Z 28005KT 06/04 A3001 RMK A01 T00640040  RH  085%=      5-min Rain = 0
KMC5 241325Z 29005KT 07/04 A3001 RMK A01 T00650039  RH  084%=      5-min Rain = 0
KMC5 241326Z 28005KT 07/04 A3001 RMK A01 T00650041  RH  084%=      5-min Rain = 0
KMC5 241327Z 28005KT 07/04 A3001 RMK A01 T00660041  RH  084%=      5-min Rain = 0
KMC5 241328Z 28005KT 07/04 A3001 RMK A01 T00660042  RH  085%=      5-min Rain = 0
KMC5 241329Z 27005KT 07/04 A3001 RMK A01 T00670041  RH  084%=      5-min Rain = 0
KMC5 241330Z 27005KT 07/04 A3001 RMK A01 T00670041  RH  084%=      5-min Rain = 0
KMC5 241331Z 27005KT 07/04 A3001 RMK A01 T00680043  RH  084%=      5-min Rain = 0
KMC5 241332Z 27004KT 07/04 A3001 RMK A01 T00690044  RH  084%=      5-min Rain = 0
KMC5 241333Z 28004KT 07/04 A3001 RMK A01 T00700043  RH  083%=      5-min Rain = 0
KMC5 241334Z 28005KT 07/05 A3001 RMK A01 T00720045  RH  083%=      5-min Rain = 0
KMC5 241335Z 28005KT 07/04 A3001 RMK A01 T00730042  RH  081%=      5-min Rain = 0
KMC5 241336Z 29005KT 07/04 A3001 RMK A01 T00730040  RH  080%=      5-min Rain = 0
KMC5 241337Z 29005KT 07/04 A3001 RMK A01 T00740043  RH  081%=      5-min Rain = 0
KMC5 241338Z 28005KT 07/04 A3001 RMK A01 T00740042  RH  080%=      5-min Rain = 0
KMC5 241339Z 28006KT 08/04 A3001 RMK A01 T00750043  RH  080%=      5-min Rain = 0
KMC5 241340Z 28006KT 08/04 A3001 RMK A01 T00760043  RH  080%=      5-min Rain = 0
KMC5 241341Z 28006KT 08/04 A3001 RMK A01 T00770043  RH  079%=      5-min Rain = 0
KMC5 241342Z 28006KT 08/04 A3001 RMK A01 T00780044  RH  079%=      5-min Rain = 0
KMC5 241343Z 27006KT 08/04 A3001 RMK A01 T00790044  RH  079%=      5-min Rain = 0
KMC5 241344Z 27005KT 08/05 A3001 RMK A01 T00800046  RH  079%=      5-min Rain = 0
KMC5 241345Z 27006KT 08/05 A3001 RMK A01 T00820047  RH  079%=      5-min Rain = 0
KMC5 241346Z 27006KT 08/04 A3001 RMK A01 T00820043  RH  076%=      5-min Rain = 0
KMC5 241347Z 27006KT 08/04 A3001 RMK A01 T00820042  RH  076%=      5-min Rain = 0
KMC5 241348Z 27005KT 08/05 A3001 RMK A01 T00820045  RH  078%=      5-min Rain = 0
KMC5 241349Z 27006KT 08/05 A3001 RMK A01 T00830047  RH  078%=      5-min Rain = 0
KMC5 241350Z 26006KT 08/05 A3001 RMK A01 T00840046  RH  077%=      5-min Rain = 0
KMC5 241351Z 26006KT 08/05 A3001 RMK A01 T00840046  RH  077%=      5-min Rain = 0
KMC5 241352Z 27005KT 09/05 A3001 RMK A01 T00850047  RH  077%=      5-min Rain = 0
KMC5 241353Z 27005KT 09/05 A3001 RMK A01 T00860046  RH  076%=      5-min Rain = 0
KMC5 241354Z 27005KT 09/05 A3001 RMK A01 T00860046  RH  076%=      5-min Rain = 0
KMC5 241355Z 27006KT 09/05 A3001 RMK A01 T00870047  RH  076%=      5-min Rain = 0
KMC5 241356Z 28006KT 09/05 A3001 RMK A01 T00880046  RH  075%=      5-min Rain = 0
KMC5 241357Z 28006KT 09/05 A3001 RMK A01 T00890047  RH  075%=      5-min Rain = 0
KMC5 241358Z 29006KT 09/05 A3001 RMK A01 T00890045  RH  074%=      5-min Rain = 0
KMC5 241359Z 28005KT 09/05 A3001 RMK A01 T00900051  RH  077%=      5-min Rain = 0
KMC5 241400Z 28005KT 09/05 A3001 RMK A01 T00920050  RH  075%=      5-min Rain = 0
KMC5 241401Z 28005KT 09/05 A3001 RMK A01 T00920049  RH  074%=      5-min Rain = 0
KMC5 241402Z 28005KT 09/05 A3001 RMK A01 T00920046  RH  073%=      5-min Rain = 0
KMC5 241403Z 29006KT 09/05 A3001 RMK A01 T00930047  RH  073%=      5-min Rain = 0
KMC5 241404Z 29005KT 09/05 A3001 RMK A01 T00940048  RH  073%=      5-min Rain = 0
KMC5 241405Z 29006KT 10/05 A3001 RMK A01 T00960050  RH  073%=      5-min Rain = 0
KMC5 241406Z 30006KT 10/05 A3001 RMK A01 T00970046  RH  070%=      5-min Rain = 0
KMC5 241407Z 30006KT 10/04 A3001 RMK A01 T00980043  RH  069%=      5-min Rain = 0
KMC5 241408Z 30005KT 10/04 A3001 RMK A01 T00980044  RH  069%=      5-min Rain = 0
KMC5 241409Z 31007KT 10/05 A3001 RMK A01 T00980047  RH  070%=      5-min Rain = 0
KMC5 241410Z 30004KT 10/05 A3001 RMK A01 T00980046  RH  070%=      5-min Rain = 0
KMC5 241411Z 30007KT 10/05 A3001 RMK A01 T00990050  RH  071%=      5-min Rain = 0
KMC5 241412Z 30005KT 10/05 A3001 RMK A01 T01000047  RH  070%=      5-min Rain = 0
KMC5 241413Z 31005KT 10/05 A3001 RMK A01 T00990046  RH  069%=      5-min Rain = 0
KMC5 241414Z 31005KT 10/05 A3001 RMK A01 T00990046  RH  069%=      5-min Rain = 0
KMC5 241415Z 28005KT 10/05 A3001 RMK A01 T01010051  RH  071%=      5-min Rain = 0
KMC5 241416Z 28005KT 10/05 A3001 RMK A01 T01010045  RH  068%=      5-min Rain = 0
KMC5 241417Z 30006KT 10/05 A3001 RMK A01 T01010050  RH  071%=      5-min Rain = 0
KMC5 241418Z 30006KT 10/05 A3001 RMK A01 T01010046  RH  068%=      5-min Rain = 0
KMC5 241419Z 30004KT 10/05 A3001 RMK A01 T01010046  RH  069%=      5-min Rain = 0
KMC5 241420Z 33004KT 10/05 A3001 RMK A01 T01000047  RH  069%=      5-min Rain = 0
KMC5 241431Z 32007KT 10/05 A3001 RMK A01 T01040049  RH  068%=      5-min Rain = 0
KMC5 241432Z 34006KT 10/05 A3001 RMK A01 T01040047  RH  068%=      5-min Rain = 0
KMC5 241433Z 34008KT 10/05 A3001 RMK A01 T01040052  RH  070%=      5-min Rain = 0
KMC5 241434Z 34006KT 11/05 A3001 RMK A01 T01050049  RH  068%=      5-min Rain = 0
KMC5 241435Z 33006KT 11/05 A3001 RMK A01 T01050050  RH  069%=      5-min Rain = 0
KMC5 241436Z 33005KT 10/05 A3001 RMK A01 T01040048  RH  068%=      5-min Rain = 0
KMC5 241437Z 32004KT 10/05 A3001 RMK A01 T01020048  RH  069%=      5-min Rain = 0
KMC5 241438Z 30006KT 10/05 A3001 RMK A01 T01020051  RH  070%=      5-min Rain = 0
KMC5 241439Z 32005KT 10/05 A3001 RMK A01 T01020050  RH  070%=      5-min Rain = 0
KMC5 241440Z 34004KT 10/05 A3001 RMK A01 T01020051  RH  070%=      5-min Rain = 0
KMC5 241441Z 33005KT 11/05 A30 RMK A01 T01050054  RH  071%=      5-min Rain = 0
KMC5 241442Z 32006KT 11/06 A30 RMK A01 T01080055  RH  070%=      5-min Rain = 0
KMC5 241443Z 33007KT 11/06 A30 RMK A01 T01100057  RH  070%=      5-min Rain = 0
KMC5 241444Z 33007KT 11/06 A30 RMK A01 T01120056  RH  069%=      5-min Rain = 0
KMC5 241445Z 33008KT 11/06 A30 RMK A01 T01120055  RH  068%=      5-min Rain = 0
KMC5 241446Z 36007KT 11/05 A30 RMK A01 T01110053  RH  067%=      5-min Rain = 0
KMC5 241447Z 35006KT 11/05 A30 RMK A01 T01110052  RH  067%=      5-min Rain = 0
KMC5 241448Z 34007KT 11/05 A30 RMK A01 T01120052  RH  067%=      5-min Rain = 0
KMC5 241449Z 33007KT 11/05 A30 RMK A01 T01120053  RH  067%=      5-min Rain = 0
KMC5 241450Z 34008KT 11/06 A30 RMK A01 T01140058  RH  068%=      5-min Rain = 0
KMC5 241451Z 34008KT 12/05 A30 RMK A01 T01180054  RH  065%=      5-min Rain = 0
KMC5 241452Z 33009KT 12/05 A30 RMK A01 T01170052  RH  065%=      5-min Rain = 0
KMC5 241453Z 35009KT 12/05 A30 RMK A01 T01160054  RH  066%=      5-min Rain = 0
KMC5 241454Z 34009KT 12/05 A30 RMK A01 T01170053  RH  065%=      5-min Rain = 0
KMC5 241455Z 36009KT 12/05 A30 RMK A01 T01160054  RH  066%=      5-min Rain = 0
KMC5 241456Z 01008KT 12/05 A30 RMK A01 T01170054  RH  065%=      5-min Rain = 0
KMC5 241457Z 36007KT 12/05 A30 RMK A01 T01180052  RH  064%=      5-min Rain = 0
KMC5 241458Z 35007KT 12/05 A30 RMK A01 T01170052  RH  064%=      5-min Rain = 0
KMC5 241459Z 34008KT 12/05 A30 RMK A01 T01170054  RH  065%=      5-min Rain = 0
KMC5 241500Z 33008KT 12/06 A30 RMK A01 T01190056  RH  065%=      5-min Rain = 0
KMC5 241501Z 34007KT 12/05 A30 RMK A01 T01190053  RH  064%=      5-min Rain = 0
KMC5 241502Z 34006KT 12/05 A30 RMK A01 T01170052  RH  064%=      5-min Rain = 0
KMC5 241503Z 34008KT 12/05 A30 RMK A01 T01160051  RH  064%=      5-min Rain = 0
KMC5 241504Z 34008KT 12/05 A2999 RMK A01 T01160052  RH  065%=      5-min Rain = 0
KMC5 241505Z 34008KT 12/05 A2999 RMK A01 T01150051  RH  065%=      5-min Rain = 0
KMC5 241506Z 34008KT 12/05 A2999 RMK A01 T01150053  RH  066%=      5-min Rain = 0
KMC5 241507Z 33007KT 12/05 A2999 RMK A01 T01150053  RH  066%=      5-min Rain = 0
KMC5 241508Z 34007KT 12/06 A2999 RMK A01 T01160055  RH  066%=      5-min Rain = 0
KMC5 241509Z 34008KT 12/05 A2999 RMK A01 T01170054  RH  065%=      5-min Rain = 0
KMC5 241510Z 35007KT 12/06 A2999 RMK A01 T01180056  RH  066%=      5-min Rain = 0
KMC5 241511Z 34007KT 12/06 A2999 RMK A01 T01210058  RH  066%=      5-min Rain = 0
KMC5 241512Z 35008KT 12/06 A2999 RMK A01 T01230058  RH  065%=      5-min Rain = 0
KMC5 241513Z 36008KT 12/06 A2999 RMK A01 T01240056  RH  063%=      5-min Rain = 0
KMC5 241514Z 33008KT 12/06 A2999 RMK A01 T01240060  RH  065%=      5-min Rain = 0
KMC5 241515Z 33009KT 13/06 A2999 RMK A01 T01250058  RH  064%=      5-min Rain = 0
KMC5 241516Z 33008KT 13/06 A2999 RMK A01 T01250057  RH  063%=      5-min Rain = 0
KMC5 241517Z 34010KT 12/06 A2998 RMK A01 T01240057  RH  064%=      5-min Rain = 0
KMC5 241518Z 35010KT 12/06 A2998 RMK A01 T01230056  RH  063%=      5-min Rain = 0
KMC5 241519Z 33010KT 12/06 A2998 RMK A01 T01230057  RH  064%=      5-min Rain = 0
KMC5 241520Z 32009KT 12/06 A2998 RMK A01 T01240056  RH  063%=      5-min Rain = 0
KMC5 241521Z 32009KT 12/06 A2998 RMK A01 T01240056  RH  063%=      5-min Rain = 0
KMC5 241522Z 32009KT 12/06 A2998 RMK A01 T01220057  RH  064%=      5-min Rain = 0
KMC5 241523Z 33008KT 12/06 A2998 RMK A01 T01220057  RH  065%=      5-min Rain = 0
KMC5 241524Z 32008KT 12/06 A2998 RMK A01 T01230057  RH  064%=      5-min Rain = 0
KMC5 241525Z 33006KT 12/06 A2998 RMK A01 T01220056  RH  064%=      5-min Rain = 0
KMC5 241526Z 33010KT 12/06 A2998 RMK A01 T01230060  RH  065%=      5-min Rain = 0
KMC5 241527Z 34010KT 13/06 A2997 RMK A01 T01260057  RH  063%=      5-min Rain = 0
KMC5 241528Z 35009KT 13/06 A2997 RMK A01 T01260058  RH  063%=      5-min Rain = 0
KMC5 241529Z 34010KT 13/06 A2997 RMK A01 T01260057  RH  063%=      5-min Rain = 0
KMC5 241530Z 34009KT 13/06 A2997 RMK A01 T01260061  RH  065%=      5-min Rain = 0
KMC5 241531Z 34009KT 13/06 A2997 RMK A01 T01280059  RH  063%=      5-min Rain = 0
KMC5 241532Z 33009KT 13/06 A2997 RMK A01 T01280059  RH  063%=      5-min Rain = 0
KMC5 241533Z 34010KT 13/06 A2997 RMK A01 T01270060  RH  064%=      5-min Rain = 0
KMC5 241534Z 33010KT 13/06 A2997 RMK A01 T01290062  RH  063%=      5-min Rain = 0
KMC5 241535Z 32009KT 13/06 A2997 RMK A01 T01320061  RH  062%=      5-min Rain = 0
KMC5 241536Z 32010KT 13/06 A2997 RMK A01 T01330063  RH  063%=      5-min Rain = 0
KMC5 241537Z 33012KT 13/06 A2997 RMK A01 T01340061  RH  061%=      5-min Rain = 0
KMC5 241538Z 34012KT 13/06 A2997 RMK A01 T01310060  RH  062%=      5-min Rain = 0
KMC5 241539Z 34011KT 13/06 A2997 RMK A01 T01300061  RH  063%=      5-min Rain = 0
KMC5 241540Z 33011KT 13/06 A2997 RMK A01 T01300061  RH  063%=      5-min Rain = 0
KMC5 241541Z 34010KT 13/06 A2997 RMK A01 T01300061  RH  063%=      5-min Rain = 0
KMC5 241542Z 35010KT 13/06 A2997 RMK A01 T01300062  RH  063%=      5-min Rain = 0
KMC5 241543Z 35010KT 13/06 A2997 RMK A01 T01310063  RH  063%=      5-min Rain = 0
KMC5 241544Z 34012KT 13/07 A2997 RMK A01 T01340067  RH  064%=      5-min Rain = 0
KMC5 241545Z 33010KT 14/07 A2997 RMK A01 T01370065  RH  062%=      5-min Rain = 0
KMC5 241546Z 33012KT 14/07 A2997 RMK A01 T01380065  RH  062%=      5-min Rain = 0
KMC5 241547Z 34012KT 14/06 A2997 RMK A01 T01360063  RH  061%=      5-min Rain = 0
KMC5 241548Z 33011KT 13/06 A2997 RMK A01 T01330061  RH  062%=      5-min Rain = 0
KMC5 241549Z 34011KT 13/07 A2997 RMK A01 T01340066  RH  063%=      5-min Rain = 0
KMC5 241550Z 35012KT 14/06 A2997 RMK A01 T01360064  RH  062%=      5-min Rain = 0
KMC5 241551Z 34013KT 14/07 A2997 RMK A01 T01380066  RH  062%=      5-min Rain = 0
KMC5 241552Z 33010KT 14/07 A2997 RMK A01 T01380065  RH  061%=      5-min Rain = 0
KMC5 241553Z 33010KT 14/07 A2997 RMK A01 T01380065  RH  061%=      5-min Rain = 0
KMC5 241554Z 34010KT 14/07 A2997 RMK A01 T01370065  RH  062%=      5-min Rain = 0
KMC5 241555Z 34012KT 14/07 A2997 RMK A01 T01400072  RH  063%=      5-min Rain = 0
KMC5 241556Z 33011KT 14/06 A2997 RMK A01 T01420064  RH  059%=      5-min Rain = 0
KMC5 241557Z 33009KT 14/06 A2997 RMK A01 T01370063  RH  061%=      5-min Rain = 0
KMC5 241558Z 35011KT 14/07 A2997 RMK A01 T01370066  RH  062%=      5-min Rain = 0
KMC5 241559Z 34012KT 14/07 A2997 RMK A01 T01390067  RH  062%=      5-min Rain = 0
KMC5 241600Z 34011KT 14/06 A2997 RMK A01 T01400063  RH  060%=      5-min Rain = 0
KMC5 241601Z 35010KT 14/07 A2997 RMK A01 T01390066  RH  061%=      5-min Rain = 0
KMC5 241602Z 34010KT 14/07 A2997 RMK A01 T01400066  RH  061%=      5-min Rain = 0
KMC5 241603Z 35010KT 14/07 A2997 RMK A01 T01410065  RH  060%=      5-min Rain = 0
KMC5 241604Z 36011KT 14/06 A2997 RMK A01 T01410063  RH  059%=      5-min Rain = 0
KMC5 241605Z 34011KT 14/07 A2997 RMK A01 T01430067  RH  060%=      5-min Rain = 0
KMC5 241606Z 35009KT 14/07 A2998 RMK A01 T01430067  RH  060%=      5-min Rain = 0
KMC5 241607Z 34010KT 14/07 A2998 RMK A01 T01440066  RH  059%=      5-min Rain = 0
KMC5 241608Z 33009KT 14/07 A2998 RMK A01 T01440066  RH  059%=      5-min Rain = 0
KMC5 241609Z 32010KT 15/07 A2998 RMK A01 T01450068  RH  060%=      5-min Rain = 0
KMC5 241610Z 32009KT 15/07 A2998 RMK A01 T01450065  RH  059%=      5-min Rain = 0
KMC5 241611Z 31006KT 14/07 A2998 RMK A01 T01430066  RH  060%=      5-min Rain = 0
KMC5 241612Z 34007KT 14/07 A2998 RMK A01 T01430068  RH  061%=      5-min Rain = 0
KMC5 241613Z 36009KT 15/07 A2998 RMK A01 T01450070  RH  061%=      5-min Rain = 0
KMC5 241614Z 34009KT 15/07 A2998 RMK A01 T01470069  RH  059%=      5-min Rain = 0
KMC5 241615Z 34007KT 15/07 A2998 RMK A01 T01470067  RH  058%=      5-min Rain = 0
KMC5 241616Z 36010KT 15/07 A2998 RMK A01 T01470068  RH  059%=      5-min Rain = 0
KMC5 241617Z 35010KT 15/07 A2998 RMK A01 T01470066  RH  058%=      5-min Rain = 0
KMC5 241618Z 34010KT 15/07 A2998 RMK A01 T01460067  RH  059%=      5-min Rain = 0
KMC5 241619Z 32008KT 15/07 A2999 RMK A01 T01460067  RH  059%=      5-min Rain = 0
KMC5 241620Z 32007KT 15/07 A2998 RMK A01 T01450065  RH  059%=      5-min Rain = 0
KMC5 241621Z 33005KT 14/07 A2998 RMK A01 T01430069  RH  061%=      5-min Rain = 0
KMC5 241622Z 36007KT 14/07 A2998 RMK A01 T01440068  RH  060%=      5-min Rain = 0
KMC5 241623Z 35008KT 15/07 A2998 RMK A01 T01460066  RH  059%=      5-min Rain = 0
KMC5 241624Z 34006KT 15/07 A2998 RMK A01 T01470067  RH  058%=      5-min Rain = 0
KMC5 241625Z 35008KT 15/07 A2998 RMK A01 T01470069  RH  059%=      5-min Rain = 0
KMC5 241626Z 35008KT 15/07 A2999 RMK A01 T01480065  RH  057%=      5-min Rain = 0
KMC5 241627Z 35006KT 15/06 A2999 RMK A01 T01480064  RH  057%=      5-min Rain = 0
KMC5 241628Z 36008KT 15/07 A2999 RMK A01 T01480065  RH  058%=      5-min Rain = 0
KMC5 241629Z 36007KT 15/07 A2999 RMK A01 T01490065  RH  057%=      5-min Rain = 0
KMC5 241630Z 00006KT 15/06 A2999 RMK A01 T01490064  RH  057%=      5-min Rain = 0
KMC5 241631Z 01006KT 15/07 A2999 RMK A01 T01500069  RH  058%=      5-min Rain = 0
KMC5 241632Z 00005KT 15/07 A2999 RMK A01 T01520065  RH  056%=      5-min Rain = 0
KMC5 241633Z 35005KT 15/07 A2999 RMK A01 T01510065  RH  056%=      5-min Rain = 0
KMC5 241634Z 33005KT 15/07 A2999 RMK A01 T01500066  RH  057%=      5-min Rain = 0
KMC5 241635Z 32003KT 15/07 A2999 RMK A01 T01500065  RH  057%=      5-min Rain = 0
KMC5 241636Z 33003KT 15/07 A2999 RMK A01 T01490068  RH  058%=      5-min Rain = 0
KMC5 241637Z 29004KT 15/07 A2999 RMK A01 T01500068  RH  058%=      5-min Rain = 0
KMC5 241638Z 31006KT 15/07 A2999 RMK A01 T01510071  RH  059%=      5-min Rain = 0
KMC5 241639Z 32006KT 15/07 A2999 RMK A01 T01520067  RH  057%=      5-min Rain = 0
KMC5 241640Z 31004KT 15/07 A2999 RMK A01 T01520066  RH  056%=      5-min Rain = 0
KMC5 241641Z 29004KT 15/07 A2999 RMK A01 T01500067  RH  058%=      5-min Rain = 0
KMC5 241642Z 29004KT 15/07 A2999 RMK A01 T01510068  RH  058%=      5-min Rain = 0
KMC5 241643Z 27004KT 15/07 A2999 RMK A01 T01520071  RH  059%=      5-min Rain = 0
KMC5 241644Z 29004KT 15/07 A2999 RMK A01 T01540070  RH  057%=      5-min Rain = 0
KMC5 241645Z 29001KT 16/07 A2999 RMK A01 T01550067  RH  056%=      5-min Rain = 0
KMC5 241646Z 30003KT 16/07 A2999 RMK A01 T01550068  RH  056%=      5-min Rain = 0
KMC5 241647Z 31003KT 16/07 A2999 RMK A01 T01550070  RH  057%=      5-min Rain = 0
KMC5 241648Z 31006KT 16/07 A2999 RMK A01 T01560072  RH  057%=      5-min Rain = 0
KMC5 241649Z 32005KT 16/07 A30 RMK A01 T01600074  RH  057%=      5-min Rain = 0
KMC5 241650Z 33005KT 16/07 A30 RMK A01 T01620074  RH  056%=      5-min Rain = 0
KMC5 241651Z 32006KT 16/07 A30 RMK A01 T01630069  RH  054%=      5-min Rain = 0
KMC5 241652Z 32006KT 16/07 A30 RMK A01 T01600066  RH  054%=      5-min Rain = 0
KMC5 241653Z 31004KT 16/06 A30 RMK A01 T01570063  RH  054%=      5-min Rain = 0
KMC5 241654Z 28002KT 15/06 A30 RMK A01 T01540064  RH  055%=      5-min Rain = 0
KMC5 241655Z 29004KT 15/06 A30 RMK A01 T01530064  RH  055%=      5-min Rain = 0
KMC5 241656Z 28004KT 15/07 A30 RMK A01 T01530066  RH  056%=      5-min Rain = 0
KMC5 241657Z 29003KT 16/07 A30 RMK A01 T01550070  RH  057%=      5-min Rain = 0
KMC5 241658Z 34006KT 16/07 A30 RMK A01 T01580072  RH  056%=      5-min Rain = 0
KMC5 241659Z 33007KT 16/07 A30 RMK A01 T01630069  RH  054%=      5-min Rain = 0
KMC5 241700Z 32006KT 16/06 A30 RMK A01 T01620064  RH  052%=      5-min Rain = 0
KMC5 241701Z 32005KT 16/07 A30 RMK A01 T01590067  RH  054%=      5-min Rain = 0
KMC5 241702Z 34004KT 16/07 A30 RMK A01 T01590068  RH  055%=      5-min Rain = 0
KMC5 241703Z 01004KT 16/07 A30 RMK A01 T01600067  RH  054%=      5-min Rain = 0
KMC5 241704Z 01004KT 16/07 A2999 RMK A01 T01620066  RH  053%=      5-min Rain = 0
KMC5 241705Z 01003KT 16/06 A2999 RMK A01 T01610063  RH  052%=      5-min Rain = 0
KMC5 241706Z 35005KT 16/06 A2999 RMK A01 T01600064  RH  053%=      5-min Rain = 0
KMC5 241707Z 34004KT 16/07 A2999 RMK A01 T01600067  RH  054%=      5-min Rain = 0
KMC5 241708Z 29004G9KT 16/08 A2999 RMK A01 T01620076  RH  056%=      5-min Rain = 0
KMC5 241709Z 31003KT 16/07 A2999 RMK A01 T01640071  RH  054%=      5-min Rain = 0
KMC5 241710Z 28003KT 16/08 A2999 RMK A01 T01640077  RH  056%=      5-min Rain = 0
KMC5 241711Z 00002KT 17/08 A2999 RMK A01 T01650075  RH  055%=      5-min Rain = 0
KMC5 241712Z 30005KT 17/07 A2999 RMK A01 T01660070  RH  053%=      5-min Rain = 0
KMC5 241713Z 29005KT 17/07 A2999 RMK A01 T01660073  RH  054%=      5-min Rain = 0
KMC5 241714Z 29006KT 17/07 A2999 RMK A01 T01650069  RH  053%=      5-min Rain = 0
KMC5 241715Z 29004KT 16/07 A2999 RMK A01 T01630067  RH  053%=      5-min Rain = 0
KMC5 241716Z 28003KT 16/07 A2999 RMK A01 T01610070  RH  054%=      5-min Rain = 0
KMC5 241717Z 28004KT 16/07 A2999 RMK A01 T01620074  RH  056%=      5-min Rain = 0
KMC5 241718Z 31002KT 16/07 A2999 RMK A01 T01640072  RH  054%=      5-min Rain = 0
KMC5 241719Z 29006KT 17/08 A2999 RMK A01 T01660075  RH  055%=      5-min Rain = 0
KMC5 241720Z 28005KT 17/07 A2999 RMK A01 T01660069  RH  053%=      5-min Rain = 0
KMC5 241721Z 27004KT 16/07 A2998 RMK A01 T01620070  RH  054%=      5-min Rain = 0
KMC5 241722Z 25002KT 16/07 A2998 RMK A01 T01600067  RH  054%=      5-min Rain = 0
KMC5 241723Z 26004KT 16/07 A2998 RMK A01 T01590069  RH  055%=      5-min Rain = 0
KMC5 241724Z 27005KT 16/08 A2998 RMK A01 T01610077  RH  058%=      5-min Rain = 0
KMC5 241725Z 27008KT 17/07 A2998 RMK A01 T01660074  RH  055%=      5-min Rain = 0
KMC5 241726Z 27006KT 17/07 A2998 RMK A01 T01670072  RH  053%=      5-min Rain = 0
KMC5 241727Z 27006KT 17/07 A2998 RMK A01 T01670073  RH  054%=      5-min Rain = 0
KMC5 241728Z 29010KT 17/08 A2998 RMK A01 T01690076  RH  054%=      5-min Rain = 0
KMC5 241729Z 29008KT 17/07 A2998 RMK A01 T01710074  RH  053%=      5-min Rain = 0
KMC5 241730Z 32008KT 17/07 A2998 RMK A01 T01730072  RH  051%=      5-min Rain = 0
KMC5 241731Z 31006KT 17/07 A2998 RMK A01 T01700070  RH  052%=      5-min Rain = 0
KMC5 241732Z 31005KT 17/07 A2998 RMK A01 T01680067  RH  051%=      5-min Rain = 0
KMC5 241733Z 30003KT 17/07 A2998 RMK A01 T01660066  RH  052%=      5-min Rain = 0
KMC5 241734Z 30004KT 17/07 A2998 RMK A01 T01650067  RH  052%=      5-min Rain = 0
KMC5 241735Z 32004KT 16/07 A2998 RMK A01 T01630067  RH  053%=      5-min Rain = 0
KMC5 241736Z 34007KT 16/07 A2997 RMK A01 T01640070  RH  054%=      5-min Rain = 0
KMC5 241737Z 32006KT 17/07 A2997 RMK A01 T01660070  RH  053%=      5-min Rain = 0
KMC5 241738Z 33004KT 17/07 A2997 RMK A01 T01690074  RH  054%=      5-min Rain = 0
KMC5 241739Z 35004KT 17/07 A2997 RMK A01 T01720073  RH  052%=      5-min Rain = 0
KMC5 241740Z 28005KT 17/07 A2997 RMK A01 T01740072  RH  051%=      5-min Rain = 0
KMC5 241741Z 27005KT 17/07 A2997 RMK A01 T01710069  RH  051%=      5-min Rain = 0
KMC5 241742Z 27003KT 17/07 A2997 RMK A01 T01670069  RH  052%=      5-min Rain = 0
KMC5 241743Z 25004KT 17/07 A2997 RMK A01 T01660073  RH  054%=      5-min Rain = 0
KMC5 241744Z 27003KT 17/07 A2997 RMK A01 T01660073  RH  054%=      5-min Rain = 0
KMC5 241745Z 30004G9KT 17/07 A2997 RMK A01 T01660069  RH  053%=      5-min Rain = 0
KMC5 241746Z 32008KT 17/08 A2997 RMK A01 T01670076  RH  055%=      5-min Rain = 0
KMC5 241747Z 32008KT 17/07 A2997 RMK A01 T01700070  RH  052%=      5-min Rain = 0
KMC5 241748Z 34006KT 17/07 A2997 RMK A01 T01690069  RH  052%=      5-min Rain = 0
KMC5 241749Z 01005KT 17/07 A2997 RMK A01 T01670069  RH  052%=      5-min Rain = 0
KMC5 241750Z 02004KT 17/07 A2997 RMK A01 T01660069  RH  053%=      5-min Rain = 0
KMC5 241751Z 35004KT 17/07 A2997 RMK A01 T01670069  RH  052%=      5-min Rain = 0
KMC5 241752Z 35003KT 17/07 A2997 RMK A01 T01690068  RH  051%=      5-min Rain = 0
KMC5 241753Z 29005KT 17/07 A2997 RMK A01 T01700071  RH  052%=      5-min Rain = 0
KMC5 241754Z 31005KT 17/07 A2997 RMK A01 T01710066  RH  050%=      5-min Rain = 0
KMC5 241755Z 32003KT 17/07 A2997 RMK A01 T01700065  RH  050%=      5-min Rain = 0
KMC5 241756Z 29001KT 17/06 A2997 RMK A01 T01700059  RH  048%=      5-min Rain = 0
KMC5 241757Z 36001KT 17/06 A2997 RMK A01 T01690062  RH  049%=      5-min Rain = 0
KMC5 241758Z 33002KT 17/07 A2997 RMK A01 T01700065  RH  050%=      5-min Rain = 0
KMC5 241759Z 02003KT 17/08 A2997 RMK A01 T01700077  RH  054%=      5-min Rain = 0
KMC5 241800Z 02002KT 17/07 A2996 RMK A01 T01710069  RH  051%=      5-min Rain = 0
KMC5 241801Z 04003KT 17/07 A2996 RMK A01 T01710073  RH  052%=      5-min Rain = 0
KMC5 241802Z 03002KT 17/07 A2996 RMK A01 T01710070  RH  051%=      5-min Rain = 0
KMC5 241803Z 32003KT 17/07 A2996 RMK A01 T01710071  RH  052%=      5-min Rain = 0
KMC5 241804Z 29006KT 17/08 A2996 RMK A01 T01720081  RH  055%=      5-min Rain = 0
KMC5 241805Z 29006KT 18/07 A2996 RMK A01 T01750073  RH  051%=      5-min Rain = 0
KMC5 241806Z 31006KT 18/07 A2996 RMK A01 T01750074  RH  051%=      5-min Rain = 0
KMC5 241807Z 31008KT 18/07 A2996 RMK A01 T01750074  RH  052%=      5-min Rain = 0
KMC5 241808Z 31007KT 18/07 A2996 RMK A01 T01760072  RH  051%=      5-min Rain = 0
KMC5 241809Z 29007KT 18/07 A2996 RMK A01 T01750072  RH  051%=      5-min Rain = 0
KMC5 241810Z 27004KT 18/08 A2996 RMK A01 T01750075  RH  052%=      5-min Rain = 0
KMC5 241811Z 29003KT 18/07 A2996 RMK A01 T01760072  RH  050%=      5-min Rain = 0
KMC5 241812Z 33004KT 18/07 A2996 RMK A01 T01770072  RH  050%=      5-min Rain = 0
KMC5 241813Z 30003KT 18/07 A2996 RMK A01 T01770068  RH  049%=      5-min Rain = 0
KMC5 241814Z 33006KT 18/07 A2996 RMK A01 T01770072  RH  050%=      5-min Rain = 0
KMC5 241815Z 35006KT 18/07 A2996 RMK A01 T01780070  RH  049%=      5-min Rain = 0
KMC5 241816Z 33008KT 18/07 A2996 RMK A01 T01790071  RH  049%=      5-min Rain = 0
KMC5 241817Z 34005KT 18/07 A2996 RMK A01 T01790071  RH  049%=      5-min Rain = 0
KMC5 241818Z 03002KT 18/07 A2996 RMK A01 T01770070  RH  049%=      5-min Rain = 0
KMC5 241819Z 02004KT 18/07 A2996 RMK A01 T01760072  RH  050%=      5-min Rain = 0
KMC5 241820Z 34004KT 18/07 A2996 RMK A01 T01760070  RH  050%=      5-min Rain = 0
KMC5 241821Z 32006KT 18/07 A2995 RMK A01 T01780074  RH  050%=      5-min Rain = 0
KMC5 241822Z 31006KT 18/07 A2995 RMK A01 T01800069  RH  048%=      5-min Rain = 0
KMC5 241823Z 35004KT 18/07 A2995 RMK A01 T01790067  RH  048%=      5-min Rain = 0
KMC5 241824Z 04001KT 18/06 A2995 RMK A01 T01760063  RH  047%=      5-min Rain = 0
KMC5 241825Z 31001KT 18/07 A2995 RMK A01 T01750068  RH  050%=      5-min Rain = 0
KMC5 241826Z 29005KT 18/08 A2995 RMK A01 T01760076  RH  052%=      5-min Rain = 0
KMC5 241827Z 29004KT 18/07 A2995 RMK A01 T01780068  RH  049%=      5-min Rain = 0
KMC5 241828Z 29005KT 18/07 A2995 RMK A01 T01760071  RH  050%=      5-min Rain = 0
KMC5 241829Z 27003KT 18/07 A2995 RMK A01 T01750069  RH  050%=      5-min Rain = 0
KMC5 241830Z 30004G10KT 18/07 A2995 RMK A01 T01750071  RH  050%=      5-min Rain = 0
KMC5 241831Z 32007KT 18/07 A2995 RMK A01 T01760072  RH  050%=      5-min Rain = 0
KMC5 241832Z 33005KT 18/07 A2995 RMK A01 T01760071  RH  050%=      5-min Rain = 0
KMC5 241833Z 30010KT 18/08 A2995 RMK A01 T01780078  RH  052%=      5-min Rain = 0
KMC5 241834Z 31008KT 18/08 A2995 RMK A01 T01800075  RH  050%=      5-min Rain = 0
KMC5 241835Z 33008G13KT 18/09 A2995 RMK A01 T01830085  RH  053%=      5-min Rain = 0
KMC5 241836Z 34009KT 19/08 A2995 RMK A01 T01880075  RH  048%=      5-min Rain = 0
KMC5 241837Z 34008KT 19/08 A2995 RMK A01 T01860076  RH  049%=      5-min Rain = 0
KMC5 241838Z 33006KT 19/07 A2995 RMK A01 T01850074  RH  048%=      5-min Rain = 0
KMC5 241839Z 34006KT 18/07 A2995 RMK A01 T01840074  RH  049%=      5-min Rain = 0
KMC5 241840Z 33004KT 18/07 A2995 RMK A01 T01820071  RH  048%=      5-min Rain = 0
KMC5 241841Z 31002KT 18/07 A2995 RMK A01 T01810070  RH  048%=      5-min Rain = 0
KMC5 241842Z 31002KT 18/07 A2995 RMK A01 T01790068  RH  048%=      5-min Rain = 0
KMC5 241843Z 30002KT 18/07 A2995 RMK A01 T01770073  RH  051%=      5-min Rain = 0
KMC5 241844Z 30001KT 18/07 A2995 RMK A01 T01780068  RH  048%=      5-min Rain = 0
KMC5 241845Z 29006KT 18/08 A2995 RMK A01 T01800078  RH  051%=      5-min Rain = 0
KMC5 241846Z 29006KT 18/08 A2995 RMK A01 T01820077  RH  050%=      5-min Rain = 0
KMC5 241847Z 29004KT 18/07 A2995 RMK A01 T01810071  RH  048%=      5-min Rain = 0
KMC5 241848Z 32002KT 18/07 A2995 RMK A01 T01780070  RH  049%=      5-min Rain = 0
KMC5 241849Z 27001KT 18/07 A2995 RMK A01 T01770072  RH  050%=      5-min Rain = 0
KMC5 241850Z 23004KT 18/08 A2995 RMK A01 T01790080  RH  052%=      5-min Rain = 0
KMC5 241851Z 23008KT 18/08 A2995 RMK A01 T01830081  RH  051%=      5-min Rain = 0
KMC5 241852Z 25006KT 19/08 A2995 RMK A01 T01870079  RH  050%=      5-min Rain = 0
KMC5 241853Z 31007KT 19/08 A2994 RMK A01 T01860079  RH  050%=      5-min Rain = 0
KMC5 241854Z 31008KT 19/08 A2994 RMK A01 T01860077  RH  049%=      5-min Rain = 0
KMC5 241855Z 34005KT 18/07 A2994 RMK A01 T01840071  RH  048%=      5-min Rain = 0
KMC5 241856Z 32005KT 18/07 A2994 RMK A01 T01820074  RH  049%=      5-min Rain = 0
KMC5 241857Z 35003KT 18/07 A2994 RMK A01 T01800068  RH  048%=      5-min Rain = 0
KMC5 241858Z 01002KT 18/07 A2994 RMK A01 T01780070  RH  049%=      5-min Rain = 0
KMC5 241859Z 29003KT 18/08 A2994 RMK A01 T01790076  RH  051%=      5-min Rain = 0
KMC5 241900Z 29003KT 18/07 A2994 RMK A01 T01800070  RH  048%=      5-min Rain = 0
KMC5 241901Z 33001KT 18/07 A2994 RMK A01 T01800069  RH  048%=      5-min Rain = 0
KMC5 241902Z 28002KT 18/08 A2994 RMK A01 T01810077  RH  051%=      5-min Rain = 0
KMC5 241903Z 28003KT 18/08 A2994 RMK A01 T01840082  RH  051%=      5-min Rain = 0
KMC5 241904Z 28004KT 19/08 A2994 RMK A01 T01870079  RH  049%=      5-min Rain = 0
KMC5 241905Z 31003KT 19/08 A2994 RMK A01 T01890081  RH  049%=      5-min Rain = 0
KMC5 241906Z 32007KT 19/08 A2994 RMK A01 T01900079  RH  048%=      5-min Rain = 0
KMC5 241907Z 33008KT 19/08 A2994 RMK A01 T01920080  RH  048%=      5-min Rain = 0
KMC5 241908Z 34005KT 19/07 A2994 RMK A01 T01920072  RH  046%=      5-min Rain = 0
KMC5 241909Z 33004KT 19/07 A2994 RMK A01 T01880070  RH  046%=      5-min Rain = 0
KMC5 241910Z 06002KT 18/07 A2994 RMK A01 T01840070  RH  047%=      5-min Rain = 0
KMC5 241911Z 10002KT 18/07 A2994 RMK A01 T01830071  RH  048%=      5-min Rain = 0
KMC5 241912Z 12002KT 18/07 A2994 RMK A01 T01830072  RH  048%=      5-min Rain = 0
KMC5 241913Z 09001KT 19/07 A2994 RMK A01 T01850071  RH  047%=      5-min Rain = 0
KMC5 241914Z 19001KT 19/08 A2993 RMK A01 T01860076  RH  049%=      5-min Rain = 0
KMC5 241915Z 17003KT 19/08 A2993 RMK A01 T01880083  RH  050%=      5-min Rain = 0
KMC5 241916Z 12003KT 19/08 A2993 RMK A01 T01910076  RH  047%=      5-min Rain = 0
KMC5 241917Z 14001KT 19/07 A2993 RMK A01 T01900072  RH  046%=      5-min Rain = 0
KMC5 241918Z 26002KT 19/08 A2993 RMK A01 T01890079  RH  049%=      5-min Rain = 0
KMC5 241919Z 32003KT 19/07 A2993 RMK A01 T01900072  RH  046%=      5-min Rain = 0
KMC5 241920Z 33007KT 19/08 A2993 RMK A01 T01900078  RH  048%=      5-min Rain = 0
KMC5 241921Z 33010KT 19/08 A2993 RMK A01 T01930076  RH  047%=      5-min Rain = 0
KMC5 241922Z 33008KT 19/07 A2993 RMK A01 T01910070  RH  045%=      5-min Rain = 0
KMC5 241923Z 34008KT 19/07 A2993 RMK A01 T01880073  RH  047%=      5-min Rain = 0
KMC5 241924Z 35006KT 19/07 A2993 RMK A01 T01880071  RH  047%=      5-min Rain = 0
KMC5 241925Z 03004KT 19/07 A2993 RMK A01 T01870073  RH  047%=      5-min Rain = 0
KMC5 241926Z 06004KT 19/07 A2993 RMK A01 T01880073  RH  047%=      5-min Rain = 0
KMC5 241927Z 07003KT 19/07 A2993 RMK A01 T01880072  RH  047%=      5-min Rain = 0
KMC5 241928Z 31000KT 19/07 A2993 RMK A01 T01870067  RH  045%=      5-min Rain = 0
KMC5 241929Z 25003KT 19/07 A2993 RMK A01 T01880070  RH  046%=      5-min Rain = 0
KMC5 241930Z 24003KT 19/07 A2992 RMK A01 T01910074  RH  047%=      5-min Rain = 0
KMC5 241931Z 26003KT 19/07 A2992 RMK A01 T01900073  RH  046%=      5-min Rain = 0
KMC5 241932Z 31002KT 19/07 A2992 RMK A01 T01890071  RH  046%=      5-min Rain = 0
KMC5 241933Z 01004KT 19/07 A2992 RMK A01 T01900074  RH  047%=      5-min Rain = 0
KMC5 241934Z 19004KT 19/08 A2992 RMK A01 T01920084  RH  049%=      5-min Rain = 0
KMC5 241935Z 28008KT 20/08 A2992 RMK A01 T01970082  RH  047%=      5-min Rain = 0
KMC5 241936Z 30009KT 20/08 A2992 RMK A01 T01980083  RH  047%=      5-min Rain = 0
KMC5 241937Z 30008KT 20/08 A2992 RMK A01 T01980079  RH  046%=      5-min Rain = 0
KMC5 241938Z 30010KT 20/08 A2992 RMK A01 T01970077  RH  046%=      5-min Rain = 0
KMC5 241939Z 30009KT 19/07 A2992 RMK A01 T01940074  RH  046%=      5-min Rain = 0
KMC5 241940Z 30009KT 19/08 A2992 RMK A01 T01930076  RH  047%=      5-min Rain = 0
KMC5 241941Z 29008KT 19/08 A2992 RMK A01 T01930077  RH  047%=      5-min Rain = 0
KMC5 241942Z 29006KT 19/07 A2992 RMK A01 T01930074  RH  046%=      5-min Rain = 0
KMC5 241943Z 32006KT 19/08 A2992 RMK A01 T01920078  RH  048%=      5-min Rain = 0
KMC5 241944Z 31005KT 19/07 A2992 RMK A01 T01930073  RH  046%=      5-min Rain = 0
KMC5 241945Z 30002KT 19/08 A2992 RMK A01 T01930078  RH  047%=      5-min Rain = 0
KMC5 241946Z 28006KT 19/08 A2992 RMK A01 T01930077  RH  047%=      5-min Rain = 0
KMC5 241947Z 31005KT 19/07 A2992 RMK A01 T01940071  RH  045%=      5-min Rain = 0
KMC5 241948Z 30005KT 19/07 A2992 RMK A01 T01920073  RH  046%=      5-min Rain = 0
KMC5 241949Z 29003KT 19/07 A2992 RMK A01 T01910068  RH  045%=      5-min Rain = 0
KMC5 241950Z 32006KT 19/07 A2992 RMK A01 T01900074  RH  047%=      5-min Rain = 0
KMC5 241951Z 29006KT 19/07 A2992 RMK A01 T01930074  RH  046%=      5-min Rain = 0
KMC5 241952Z 23003KT 19/07 A2992 RMK A01 T01920068  RH  044%=      5-min Rain = 0
KMC5 241953Z 30002KT 19/07 A2992 RMK A01 T01910072  RH  046%=      5-min Rain = 0
KMC5 241954Z 28007KT 19/08 A2992 RMK A01 T01940080  RH  048%=      5-min Rain = 0
KMC5 241955Z 29009KT 20/07 A2992 RMK A01 T01980071  RH  044%=      5-min Rain = 0
KMC5 241956Z 30006KT 20/07 A2992 RMK A01 T01980073  RH  044%=      5-min Rain = 0
KMC5 241957Z 28008KT 20/07 A2992 RMK A01 T01970072  RH  044%=      5-min Rain = 0
KMC5 241958Z 26008KT 20/07 A2992 RMK A01 T01970074  RH  045%=      5-min Rain = 0
KMC5 241959Z 30011KT 20/08 A2991 RMK A01 T01990079  RH  046%=      5-min Rain = 0
KMC5 242000Z 29010KT 20/07 A2991 RMK A01 T02010073  RH  043%=      5-min Rain = 0
KMC5 242001Z 27007KT 20/07 A2991 RMK A01 T01980070  RH  043%=      5-min Rain = 0
KMC5 242002Z 28007KT 20/07 A2991 RMK A01 T01960072  RH  045%=      5-min Rain = 0
KMC5 242003Z 28008KT 20/08 A2991 RMK A01 T01950076  RH  046%=      5-min Rain = 0
KMC5 242004Z 28005KT 20/08 A2991 RMK A01 T01950075  RH  046%=      5-min Rain = 0
KMC5 242005Z 27004KT 20/07 A2991 RMK A01 T01950070  RH  044%=      5-min Rain = 0
KMC5 242006Z 28005KT 19/07 A2991 RMK A01 T01940072  RH  045%=      5-min Rain = 0
KMC5 242007Z 29008KT 19/07 A2991 RMK A01 T01940073  RH  046%=      5-min Rain = 0
KMC5 242008Z 28005KT 19/07 A2991 RMK A01 T01930070  RH  045%=      5-min Rain = 0
KMC5 242009Z 27009KT 19/07 A2991 RMK A01 T01930073  RH  046%=      5-min Rain = 0
KMC5 242010Z 27009KT 20/07 A2991 RMK A01 T01960071  RH  044%=      5-min Rain = 0
KMC5 242011Z 26006KT 19/07 A2991 RMK A01 T01940068  RH  044%=      5-min Rain = 0
KMC5 242012Z 25003KT 19/07 A2991 RMK A01 T01930068  RH  044%=      5-min Rain = 0
KMC5 242013Z 22000KT 19/08 A2991 RMK A01 T01930075  RH  047%=      5-min Rain = 0
KMC5 242014Z 27003KT 19/07 A2991 RMK A01 T01940071  RH  045%=      5-min Rain = 0
KMC5 242015Z 28003KT 20/07 A2991 RMK A01 T01950072  RH  045%=      5-min Rain = 0
KMC5 242016Z 31008KT 20/08 A2991 RMK A01 T01970076  RH  046%=      5-min Rain = 0
KMC5 242017Z 32007KT 20/08 A2991 RMK A01 T02000076  RH  045%=      5-min Rain = 0
KMC5 242018Z 30005KT 20/08 A2991 RMK A01 T02020079  RH  045%=      5-min Rain = 0
KMC5 242019Z 29009KT 20/07 A2991 RMK A01 T02030072  RH  042%=      5-min Rain = 0
KMC5 242020Z 29008KT 20/08 A2991 RMK A01 T02030075  RH  044%=      5-min Rain = 0
KMC5 242021Z 29007KT 20/07 A2991 RMK A01 T02020071  RH  043%=      5-min Rain = 0
KMC5 242022Z 29009KT 20/07 A2991 RMK A01 T02010073  RH  044%=      5-min Rain = 0
KMC5 242023Z 30008KT 20/07 A299 RMK A01 T02010072  RH  043%=      5-min Rain = 0
KMC5 242024Z 30008KT 20/07 A299 RMK A01 T02000072  RH  043%=      5-min Rain = 0
KMC5 242025Z 31006KT 20/07 A299 RMK A01 T01990071  RH  043%=      5-min Rain = 0
KMC5 242026Z 30004KT 20/07 A299 RMK A01 T01990068  RH  043%=      5-min Rain = 0
KMC5 242027Z 30005G10KT 20/07 A299 RMK A01 T01970070  RH  044%=      5-min Rain = 0
KMC5 242028Z 31010KT 20/07 A299 RMK A01 T01980069  RH  043%=      5-min Rain = 0
KMC5 242029Z 30008KT 20/07 A299 RMK A01 T02000068  RH  042%=      5-min Rain = 0
KMC5 242030Z 28006KT 20/07 A299 RMK A01 T01980066  RH  042%=      5-min Rain = 0
KMC5 242031Z 27007KT 20/07 A299 RMK A01 T01970067  RH  043%=      5-min Rain = 0
KMC5 242032Z 28006KT 20/07 A299 RMK A01 T01960066  RH  043%=      5-min Rain = 0
KMC5 242033Z 27005KT 20/07 A299 RMK A01 T01950067  RH  043%=      5-min Rain = 0
KMC5 242034Z 23004KT 20/06 A299 RMK A01 T01960063  RH  042%=      5-min Rain = 0
KMC5 242035Z 26006KT 20/06 A299 RMK A01 T01960064  RH  042%=      5-min Rain = 0
KMC5 242036Z 26008KT 20/06 A299 RMK A01 T01980063  RH  041%=      5-min Rain = 0
KMC5 242037Z 27007KT 20/06 A299 RMK A01 T01990063  RH  041%=      5-min Rain = 0
KMC5 242038Z 32001KT 20/07 A299 RMK A01 T02000065  RH  041%=      5-min Rain = 0
KMC5 242039Z 21002KT 20/07 A299 RMK A01 T02010071  RH  043%=      5-min Rain = 0
KMC5 242040Z 29005KT 20/07 A299 RMK A01 T02030071  RH  042%=      5-min Rain = 0
KMC5 242041Z 28002KT 21/07 A299 RMK A01 T02050073  RH  042%=      5-min Rain = 0
KMC5 242042Z 24006KT 21/07 A299 RMK A01 T02070068  RH  040%=      5-min Rain = 0
KMC5 242043Z 25010KT 21/07 A299 RMK A01 T02070072  RH  041%=      5-min Rain = 0
KMC5 242044Z 27008KT 21/07 A299 RMK A01 T02080071  RH  041%=      5-min Rain = 0
KMC5 242045Z 27008KT 21/07 A299 RMK A01 T02090067  RH  040%=      5-min Rain = 0
KMC5 242046Z 26008KT 21/07 A299 RMK A01 T02080066  RH  040%=      5-min Rain = 0
KMC5 242047Z 24007KT 21/07 A299 RMK A01 T02070069  RH  041%=      5-min Rain = 0
KMC5 242048Z 25007KT 21/07 A299 RMK A01 T02080069  RH  040%=      5-min Rain = 0
KMC5 242049Z 26008KT 21/07 A299 RMK A01 T02080070  RH  041%=      5-min Rain = 0
KMC5 242050Z 26008KT 21/07 A299 RMK A01 T02080073  RH  041%=      5-min Rain = 0
KMC5 242051Z 25008KT 21/07 A299 RMK A01 T02070071  RH  041%=      5-min Rain = 0
KMC5 242052Z 29009KT 21/08 A299 RMK A01 T02070075  RH  043%=      5-min Rain = 0
KMC5 242053Z 27006KT 21/07 A299 RMK A01 T02070073  RH  042%=      5-min Rain = 0
KMC5 242054Z 25004KT 21/07 A2989 RMK A01 T02060069  RH  041%=      5-min Rain = 0
KMC5 242055Z 27007KT 20/07 A2989 RMK A01 T02030071  RH  042%=      5-min Rain = 0
KMC5 242056Z 28007KT 20/07 A2989 RMK A01 T02020070  RH  042%=      5-min Rain = 0
KMC5 242057Z 26007KT 20/07 A2989 RMK A01 T02000068  RH  042%=      5-min Rain = 0
KMC5 242058Z 25007KT 20/07 A2989 RMK A01 T01970071  RH  044%=      5-min Rain = 0
KMC5 242059Z 23005KT 20/07 A2989 RMK A01 T01970070  RH  044%=      5-min Rain = 0
KMC5 242100Z 20003KT 20/08 A2989 RMK A01 T01990075  RH  045%=      5-min Rain = 0
KMC5 242101Z 32002KT 20/07 A2989 RMK A01 T02010072  RH  043%=      5-min Rain = 0
KMC5 242102Z 00002KT 20/07 A2989 RMK A01 T02020065  RH  041%=      5-min Rain = 0
KMC5 242103Z 04004KT 20/07 A2989 RMK A01 T02030070  RH  042%=      5-min Rain = 0
KMC5 242104Z 03004KT 21/07 A2989 RMK A01 T02050067  RH  041%=      5-min Rain = 0
KMC5 242105Z 04005KT 21/07 A2989 RMK A01 T02050067  RH  041%=      5-min Rain = 0
KMC5 242106Z 04002KT 20/06 A2989 RMK A01 T02040063  RH  040%=      5-min Rain = 0
KMC5 242107Z 28002KT 20/07 A2989 RMK A01 T02030068  RH  042%=      5-min Rain = 0
KMC5 242108Z 26003KT 20/07 A2989 RMK A01 T02040066  RH  041%=      5-min Rain = 0
KMC5 242109Z 26004KT 21/07 A2989 RMK A01 T02060067  RH  040%=      5-min Rain = 0
KMC5 242110Z 25006KT 21/06 A2989 RMK A01 T02080062  RH  039%=      5-min Rain = 0
KMC5 242111Z 24007KT 21/06 A2989 RMK A01 T02070064  RH  039%=      5-min Rain = 0
KMC5 242112Z 25007KT 21/06 A2989 RMK A01 T02060062  RH  039%=      5-min Rain = 0
KMC5 242113Z 28009KT 21/07 A2989 RMK A01 T02060068  RH  041%=      5-min Rain = 0
KMC5 242114Z 29007KT 21/06 A2989 RMK A01 T02070063  RH  039%=      5-min Rain = 0
KMC5 242115Z 26005KT 21/06 A2989 RMK A01 T02060060  RH  039%=      5-min Rain = 0
KMC5 242116Z 29005KT 20/06 A2989 RMK A01 T02040062  RH  040%=      5-min Rain = 0
KMC5 242117Z 31007KT 21/07 A2989 RMK A01 T02050069  RH  041%=      5-min Rain = 0
KMC5 242118Z 28010KT 21/07 A2989 RMK A01 T02090069  RH  040%=      5-min Rain = 0
KMC5 242119Z 29011KT 21/07 A2989 RMK A01 T02110069  RH  040%=      5-min Rain = 0
KMC5 242120Z 30011KT 21/07 A2989 RMK A01 T02110066  RH  039%=      5-min Rain = 0
KMC5 242121Z 31009KT 21/06 A2989 RMK A01 T02100064  RH  039%=      5-min Rain = 0
KMC5 242122Z 31008KT 21/06 A2989 RMK A01 T02080062  RH  039%=      5-min Rain = 0
KMC5 242123Z 30005KT 21/06 A2989 RMK A01 T02070057  RH  037%=      5-min Rain = 0
KMC5 242124Z 30003KT 21/05 A2989 RMK A01 T02050053  RH  037%=      5-min Rain = 0
KMC5 242125Z 31005KT 21/06 A2989 RMK A01 T02050058  RH  038%=      5-min Rain = 0
KMC5 242126Z 33003KT 20/06 A2989 RMK A01 T02040056  RH  038%=      5-min Rain = 0
KMC5 242127Z 29005KT 20/06 A2989 RMK A01 T02040055  RH  038%=      5-min Rain = 0
KMC5 242128Z 30002KT 20/05 A2989 RMK A01 T02040050  RH  036%=      5-min Rain = 0
KMC5 242129Z 31002KT 20/05 A2988 RMK A01 T02030054  RH  038%=      5-min Rain = 0
KMC5 242130Z 30003KT 20/05 A2988 RMK A01 T02030052  RH  037%=      5-min Rain = 0
KMC5 242131Z 25003KT 20/05 A2988 RMK A01 T02040054  RH  037%=      5-min Rain = 0
KMC5 242132Z 26003KT 21/06 A2988 RMK A01 T02050058  RH  038%=      5-min Rain = 0
KMC5 242133Z 23004KT 21/06 A2988 RMK A01 T02080059  RH  038%=      5-min Rain = 0
KMC5 242134Z 25004KT 21/06 A2988 RMK A01 T02100059  RH  037%=      5-min Rain = 0
KMC5 242135Z 28004KT 21/06 A2988 RMK A01 T02100058  RH  037%=      5-min Rain = 0
KMC5 242136Z 26006G11KT 21/06 A2988 RMK A01 T02100062  RH  038%=      5-min Rain = 0
KMC5 242137Z 27008KT 21/07 A2988 RMK A01 T02110065  RH  039%=      5-min Rain = 0
KMC5 242138Z 27007KT 21/06 A2988 RMK A01 T02110064  RH  038%=      5-min Rain = 0
KMC5 242139Z 28007KT 21/06 A2988 RMK A01 T02100064  RH  039%=      5-min Rain = 0
KMC5 242140Z 29004KT 21/06 A2988 RMK A01 T02090061  RH  038%=      5-min Rain = 0
KMC5 242141Z 28003KT 21/06 A2988 RMK A01 T02080062  RH  038%=      5-min Rain = 0
KMC5 242142Z 30006KT 21/07 A2988 RMK A01 T02090068  RH  040%=      5-min Rain = 0
KMC5 242143Z 28009KT 21/07 A2988 RMK A01 T02110066  RH  039%=      5-min Rain = 0
KMC5 242144Z 27009KT 21/07 A2988 RMK A01 T02120066  RH  039%=      5-min Rain = 0
KMC5 242145Z 28008KT 21/06 A2988 RMK A01 T02120060  RH  037%=      5-min Rain = 0
KMC5 242146Z 27007KT 21/06 A2988 RMK A01 T02090061  RH  038%=      5-min Rain = 0
KMC5 242147Z 27008KT 21/06 A2988 RMK A01 T02090060  RH  038%=      5-min Rain = 0
KMC5 242148Z 28007KT 21/06 A2988 RMK A01 T02090062  RH  038%=      5-min Rain = 0
KMC5 242149Z 32005KT 21/06 A2988 RMK A01 T02090063  RH  039%=      5-min Rain = 0
KMC5 242150Z 31004KT 21/06 A2988 RMK A01 T02090059  RH  038%=      5-min Rain = 0
KMC5 242151Z 34005KT 21/07 A2988 RMK A01 T02090066  RH  039%=      5-min Rain = 0
KMC5 242152Z 35005KT 21/06 A2988 RMK A01 T02100061  RH  038%=      5-min Rain = 0
KMC5 242153Z 35006KT 21/07 A2988 RMK A01 T02120071  RH  040%=      5-min Rain = 0
KMC5 242154Z 34004KT 22/06 A2988 RMK A01 T02150064  RH  038%=      5-min Rain = 0
KMC5 242155Z 31003KT 22/07 A2988 RMK A01 T02150066  RH  038%=      5-min Rain = 0
KMC5 242156Z 26005KT 22/07 A2988 RMK A01 T02150069  RH  039%=      5-min Rain = 0
KMC5 242157Z 28004KT 22/06 A2988 RMK A01 T02160058  RH  036%=      5-min Rain = 0
KMC5 242158Z 27003KT 21/06 A2988 RMK A01 T02130056  RH  036%=      5-min Rain = 0
KMC5 242159Z 24002KT 21/06 A2988 RMK A01 T02110056  RH  036%=      5-min Rain = 0
KMC5 242200Z 21001KT 21/06 A2988 RMK A01 T02100056  RH  037%=      5-min Rain = 0
KMC5 242201Z 23000KT 21/05 A2988 RMK A01 T02100052  RH  036%=      5-min Rain = 0
KMC5 242202Z 11002KT 21/06 A2988 RMK A01 T02090056  RH  037%=      5-min Rain = 0
KMC5 242203Z 12003KT 21/06 A2988 RMK A01 T02090055  RH  036%=      5-min Rain = 0
KMC5 242204Z 13003KT 21/06 A2988 RMK A01 T02090056  RH  037%=      5-min Rain = 0
KMC5 242205Z 11001KT 21/05 A2988 RMK A01 T02090054  RH  036%=      5-min Rain = 0
KMC5 242206Z 09000KT 21/06 A2988 RMK A01 T02100056  RH  036%=      5-min Rain = 0
KMC5 242207Z 30003KT 21/06 A2988 RMK A01 T02120059  RH  037%=      5-min Rain = 0
KMC5 242208Z 29005KT 21/06 A2988 RMK A01 T02140064  RH  038%=      5-min Rain = 0
KMC5 242209Z 28003KT 21/06 A2988 RMK A01 T02130057  RH  036%=      5-min Rain = 0
KMC5 242210Z 28007KT 21/06 A2988 RMK A01 T02120062  RH  038%=      5-min Rain = 0
KMC5 242211Z 27005KT 21/06 A2988 RMK A01 T02120063  RH  038%=      5-min Rain = 0
KMC5 242212Z 24005KT 21/06 A2988 RMK A01 T02120060  RH  037%=      5-min Rain = 0
KMC5 242213Z 23005KT 21/06 A2988 RMK A01 T02120056  RH  036%=      5-min Rain = 0
KMC5 242214Z 28007KT 21/06 A2988 RMK A01 T02110057  RH  037%=      5-min Rain = 0
KMC5 242215Z 28006KT 21/06 A2988 RMK A01 T02120056  RH  036%=      5-min Rain = 0
KMC5 242216Z 29005KT 21/06 A2988 RMK A01 T02110057  RH  036%=      5-min Rain = 0
KMC5 242217Z 28005KT 21/06 A2988 RMK A01 T02100059  RH  037%=      5-min Rain = 0
KMC5 242218Z 28006KT 21/05 A2988 RMK A01 T02110054  RH  036%=      5-min Rain = 0
KMC5 242219Z 27007KT 21/06 A2988 RMK A01 T02110057  RH  037%=      5-min Rain = 0
KMC5 242220Z 29007KT 21/06 A2988 RMK A01 T02110056  RH  036%=      5-min Rain = 0
KMC5 242221Z 31004KT 21/05 A2988 RMK A01 T02090054  RH  036%=      5-min Rain = 0
KMC5 242222Z 35001KT 21/05 A2988 RMK A01 T02080051  RH  036%=      5-min Rain = 0
KMC5 242223Z 22000KT 21/05 A2988 RMK A01 T02090051  RH  035%=      5-min Rain = 0
KMC5 242224Z 27005G10KT 21/06 A2988 RMK A01 T02100056  RH  037%=      5-min Rain = 0
KMC5 242225Z 29007KT 21/07 A2988 RMK A01 T02130065  RH  038%=      5-min Rain = 0
KMC5 242226Z 30006KT 22/06 A2988 RMK A01 T02160064  RH  037%=      5-min Rain = 0
KMC5 242227Z 28007KT 22/06 A2988 RMK A01 T02180059  RH  036%=      5-min Rain = 0
KMC5 242228Z 28007KT 22/06 A2988 RMK A01 T02170056  RH  035%=      5-min Rain = 0
KMC5 242229Z 30005KT 22/06 A2988 RMK A01 T02150059  RH  036%=      5-min Rain = 0
KMC5 242230Z 28003KT 21/06 A2988 RMK A01 T02140056  RH  036%=      5-min Rain = 0
KMC5 242231Z 27006KT 21/06 A2988 RMK A01 T02140061  RH  037%=      5-min Rain = 0
KMC5 242232Z 27005KT 22/06 A2988 RMK A01 T02150057  RH  036%=      5-min Rain = 0
KMC5 242233Z 26004KT 21/06 A2988 RMK A01 T02130057  RH  036%=      5-min Rain = 0
KMC5 242234Z 24005KT 21/06 A2988 RMK A01 T02120062  RH  038%=      5-min Rain = 0
KMC5 242235Z 26006KT 21/06 A2988 RMK A01 T02140064  RH  038%=      5-min Rain = 0
KMC5 242236Z 27005KT 22/06 A2988 RMK A01 T02150059  RH  036%=      5-min Rain = 0
KMC5 242237Z 28004KT 21/06 A2988 RMK A01 T02140057  RH  036%=      5-min Rain = 0
KMC5 242238Z 25003KT 21/06 A2988 RMK A01 T02120060  RH  037%=      5-min Rain = 0
KMC5 242239Z 25004KT 21/06 A2988 RMK A01 T02120058  RH  037%=      5-min Rain = 0
KMC5 242240Z 25003KT 21/06 A2988 RMK A01 T02110059  RH  037%=      5-min Rain = 0
KMC5 242241Z 31001KT 21/06 A2988 RMK A01 T02100064  RH  039%=      5-min Rain = 0
KMC5 242242Z 33003KT 21/06 A2988 RMK A01 T02110064  RH  038%=      5-min Rain = 0
KMC5 242243Z 33002KT 21/06 A2988 RMK A01 T02130060  RH  037%=      5-min Rain = 0
KMC5 242244Z 29004KT 21/06 A2988 RMK A01 T02140062  RH  037%=      5-min Rain = 0
KMC5 242245Z 32006KT 21/07 A2988 RMK A01 T02140067  RH  039%=      5-min Rain = 0
KMC5 242246Z 32007KT 22/06 A2988 RMK A01 T02160061  RH  037%=      5-min Rain = 0
KMC5 242247Z 33004KT 22/06 A2988 RMK A01 T02150056  RH  036%=      5-min Rain = 0
KMC5 242248Z 31007KT 21/06 A2988 RMK A01 T02130062  RH  037%=      5-min Rain = 0
KMC5 242249Z 30003KT 21/06 A2988 RMK A01 T02130056  RH  036%=      5-min Rain = 0
KMC5 242250Z 25001KT 21/06 A2988 RMK A01 T02110056  RH  036%=      5-min Rain = 0
KMC5 242251Z 33003KT 21/06 A2988 RMK A01 T02120056  RH  036%=      5-min Rain = 0
KMC5 242252Z 33003KT 21/06 A2988 RMK A01 T02130058  RH  036%=      5-min Rain = 0
KMC5 242253Z 34003G8KT 21/06 A2988 RMK A01 T02130060  RH  037%=      5-min Rain = 0
KMC5 242254Z 35007KT 21/06 A2988 RMK A01 T02140059  RH  036%=      5-min Rain = 0
KMC5 242255Z 36005KT 21/06 A2988 RMK A01 T02130056  RH  036%=      5-min Rain = 0
KMC5 242256Z 36004KT 21/05 A2988 RMK A01 T02110054  RH  036%=      5-min Rain = 0
KMC5 242257Z 35003KT 21/06 A2988 RMK A01 T02100055  RH  036%=      5-min Rain = 0
KMC5 242258Z 34003G8KT 21/06 A2988 RMK A01 T02100062  RH  038%=      5-min Rain = 0
KMC5 242259Z 31004KT 21/07 A2988 RMK A01 T02120065  RH  038%=      5-min Rain = 0
KMC5 242300Z 33005KT 21/06 A2988 RMK A01 T02130062  RH  037%=      5-min Rain = 0
KMC5 242301Z 34005KT 21/06 A2988 RMK A01 T02130055  RH  036%=      5-min Rain = 0
KMC5 242302Z 33004KT 21/06 A2988 RMK A01 T02110055  RH  036%=      5-min Rain = 0
KMC5 242303Z 33005KT 21/06 A2988 RMK A01 T02100057  RH  037%=      5-min Rain = 0
KMC5 242304Z 33004KT 21/06 A2988 RMK A01 T02110062  RH  038%=      5-min Rain = 0
KMC5 242305Z 33004KT 21/06 A2988 RMK A01 T02120058  RH  037%=      5-min Rain = 0
KMC5 242306Z 34001KT 21/05 A2988 RMK A01 T02120054  RH  036%=      5-min Rain = 0
KMC5 242307Z 24002KT 21/06 A2988 RMK A01 T02120060  RH  037%=      5-min Rain = 0
KMC5 242308Z 27000KT 21/05 A2988 RMK A01 T02130054  RH  035%=      5-min Rain = 0
KMC5 242309Z 32001KT 22/06 A2988 RMK A01 T02150057  RH  036%=      5-min Rain = 0
KMC5 242310Z 33004KT 22/06 A2988 RMK A01 T02150055  RH  035%=      5-min Rain = 0
KMC5 242311Z 31005KT 22/05 A2988 RMK A01 T02150054  RH  035%=      5-min Rain = 0
KMC5 242312Z 32004KT 21/05 A2988 RMK A01 T02130054  RH  035%=      5-min Rain = 0
KMC5 242313Z 31004KT 21/06 A2988 RMK A01 T02120055  RH  036%=      5-min Rain = 0
KMC5 242314Z 31003KT 21/06 A2988 RMK A01 T02120055  RH  036%=      5-min Rain = 0
KMC5 242315Z 30005KT 21/06 A2988 RMK A01 T02120060  RH  037%=      5-min Rain = 0
KMC5 242316Z 31003KT 21/06 A2988 RMK A01 T02120055  RH  036%=      5-min Rain = 0
KMC5 242317Z 31001KT 21/05 A2988 RMK A01 T02120054  RH  036%=      5-min Rain = 0
KMC5 242318Z 32002KT 21/06 A2988 RMK A01 T02120061  RH  037%=      5-min Rain = 0
KMC5 242319Z 26002KT 21/06 A2988 RMK A01 T02140056  RH  036%=      5-min Rain = 0
KMC5 242320Z 20000KT 21/06 A2988 RMK A01 T02140055  RH  035%=      5-min Rain = 0
KMC5 242321Z 31000KT 21/06 A2988 RMK A01 T02140058  RH  036%=      5-min Rain = 0
KMC5 242322Z 35003KT 21/05 A2988 RMK A01 T02140054  RH  035%=      5-min Rain = 0
KMC5 242323Z 33003KT 21/05 A2988 RMK A01 T02140054  RH  035%=      5-min Rain = 0
KMC5 242324Z 29002KT 21/06 A2988 RMK A01 T02140058  RH  036%=      5-min Rain = 0
KMC5 242325Z 28003KT 22/06 A2988 RMK A01 T02150055  RH  035%=      5-min Rain = 0
KMC5 242326Z 26003KT 21/06 A2988 RMK A01 T02140056  RH  036%=      5-min Rain = 0
KMC5 242327Z 30003KT 21/06 A2988 RMK A01 T02140055  RH  035%=      5-min Rain = 0
KMC5 242328Z 31002KT 21/05 A2987 RMK A01 T02120052  RH  035%=      5-min Rain = 0
KMC5 242329Z 31003KT 21/06 A2987 RMK A01 T02110056  RH  036%=      5-min Rain = 0
KMC5 242330Z 32004KT 21/06 A2987 RMK A01 T02110060  RH  037%=      5-min Rain = 0
KMC5 242331Z 31005KT 21/06 A2987 RMK A01 T02120058  RH  037%=      5-min Rain = 0
KMC5 242332Z 30005KT 21/06 A2987 RMK A01 T02120056  RH  036%=      5-min Rain = 0
KMC5 242333Z 32002KT 21/06 A2987 RMK A01 T02120055  RH  036%=      5-min Rain = 0
KMC5 242334Z 33001KT 21/05 A2987 RMK A01 T02110053  RH  036%=      5-min Rain = 0
KMC5 242335Z 29002KT 21/05 A2987 RMK A01 T02110054  RH  036%=      5-min Rain = 0
KMC5 242336Z 28003KT 21/06 A2987 RMK A01 T02110057  RH  036%=      5-min Rain = 0
KMC5 242337Z 29004KT 21/06 A2987 RMK A01 T02120058  RH  037%=      5-min Rain = 0
KMC5 242338Z 30005KT 21/06 A2987 RMK A01 T02130057  RH  036%=      5-min Rain = 0
KMC5 242339Z 30005KT 21/06 A2987 RMK A01 T02130056  RH  036%=      5-min Rain = 0
KMC5 242340Z 29006KT 21/06 A2987 RMK A01 T02120059  RH  037%=      5-min Rain = 0
KMC5 242341Z 30006KT 21/05 A2987 RMK A01 T02120053  RH  035%=      5-min Rain = 0
KMC5 242342Z 27006KT 21/06 A2987 RMK A01 T02110056  RH  036%=      5-min Rain = 0
KMC5 242343Z 28008KT 21/06 A2987 RMK A01 T02100059  RH  037%=      5-min Rain = 0
KMC5 242344Z 27007KT 21/05 A2987 RMK A01 T02110054  RH  036%=      5-min Rain = 0
KMC5 242345Z 26007KT 21/06 A2987 RMK A01 T02110056  RH  036%=      5-min Rain = 0
KMC5 242346Z 29006KT 21/06 A2987 RMK A01 T02110057  RH  037%=      5-min Rain = 0
KMC5 242347Z 30004KT 21/06 A2987 RMK A01 T02120056  RH  036%=      5-min Rain = 0
KMC5 242348Z 28003KT 21/06 A2987 RMK A01 T02120056  RH  036%=      5-min Rain = 0
KMC5 242349Z 28004KT 21/05 A2987 RMK A01 T02120054  RH  036%=      5-min Rain = 0
KMC5 242350Z 29006KT 21/06 A2987 RMK A01 T02120062  RH  037%=      5-min Rain = 0
KMC5 242351Z 29005KT 21/06 A2987 RMK A01 T02130058  RH  036%=      5-min Rain = 0
KMC5 242352Z 28005KT 21/06 A2987 RMK A01 T02130058  RH  036%=      5-min Rain = 0
KMC5 242353Z 27005KT 21/06 A2987 RMK A01 T02130059  RH  037%=      5-min Rain = 0
KMC5 242354Z 27006KT 21/05 A2987 RMK A01 T02130054  RH  035%=      5-min Rain = 0
KMC5 242355Z 27005KT 21/06 A2987 RMK A01 T02120058  RH  037%=      5-min Rain = 0
KMC5 242356Z 29006KT 21/06 A2987 RMK A01 T02120061  RH  037%=      5-min Rain = 0
KMC5 242357Z 29005KT 21/05 A2987 RMK A01 T02120051  RH  035%=      5-min Rain = 0
KMC5 242358Z 29004KT 21/05 A2987 RMK A01 T02110052  RH  035%=      5-min Rain = 0
KMC5 242359Z 29005KT 21/06 A2987 RMK A01 T02110057  RH  037%=      5-min Rain = 0
KMC5 250000Z 31004KT 21/05 A2987 RMK A01 T02110054  RH  036%=      5-min Rain = 0
KMC5 250001Z 31004KT 21/05 A2987 RMK A01 T02110053  RH  036%=      5-min Rain = 0
KMC5 250002Z 33005KT 21/06 A2987 RMK A01 T02100057  RH  037%=      5-min Rain = 0
KMC5 250003Z 35004KT 21/05 A2987 RMK A01 T02110054  RH  036%=      5-min Rain = 0
KMC5 250004Z 30004KT 21/05 A2987 RMK A01 T02100053  RH  036%=      5-min Rain = 0
KMC5 250005Z 29005KT 21/05 A2987 RMK A01 T02110053  RH  036%=      5-min Rain = 0
KMC5 250006Z 30004KT 21/05 A2987 RMK A01 T02100052  RH  035%=      5-min Rain = 0
KMC5 250007Z 30003KT 21/05 A2987 RMK A01 T02100052  RH  036%=      5-min Rain = 0
KMC5 250008Z 31004KT 21/06 A2987 RMK A01 T02090059  RH  037%=      5-min Rain = 0
KMC5 250009Z 30006KT 21/06 A2987 RMK A01 T02100058  RH  037%=      5-min Rain = 0
KMC5 250010Z 29006KT 21/06 A2987 RMK A01 T02100057  RH  037%=      5-min Rain = 0
KMC5 250011Z 28004KT 21/05 A2987 RMK A01 T02100052  RH  036%=      5-min Rain = 0
KMC5 250012Z 28004KT 21/05 A2987 RMK A01 T02100053  RH  036%=      5-min Rain = 0
KMC5 250013Z 28004KT 21/05 A2987 RMK A01 T02100054  RH  036%=      5-min Rain = 0
KMC5 250014Z 31007KT 21/06 A2987 RMK A01 T02100057  RH  037%=      5-min Rain = 0
KMC5 250015Z 32007KT 21/05 A2987 RMK A01 T02110052  RH  036%=      5-min Rain = 0
KMC5 250016Z 32006KT 21/05 A2987 RMK A01 T02100053  RH  036%=      5-min Rain = 0
KMC5 250017Z 34006KT 21/05 A2987 RMK A01 T02100052  RH  036%=      5-min Rain = 0
KMC5 250018Z 33006KT 21/05 A2987 RMK A01 T02090052  RH  036%=      5-min Rain = 0
KMC5 250019Z 33005KT 21/05 A2987 RMK A01 T02090053  RH  036%=      5-min Rain = 0
KMC5 250020Z 32006KT 21/05 A2987 RMK A01 T02090053  RH  036%=      5-min Rain = 0
KMC5 250021Z 31005KT 21/06 A2987 RMK A01 T02080057  RH  037%=      5-min Rain = 0
KMC5 250022Z 31007KT 21/06 A2987 RMK A01 T02080056  RH  037%=      5-min Rain = 0
KMC5 250023Z 32008KT 21/05 A2987 RMK A01 T02090052  RH  036%=      5-min Rain = 0
KMC5 250024Z 31006KT 21/05 A2987 RMK A01 T02090052  RH  036%=      5-min Rain = 0
KMC5 250025Z 31007KT 21/05 A2987 RMK A01 T02080052  RH  036%=      5-min Rain = 0
KMC5 250026Z 31007KT 21/05 A2987 RMK A01 T02080052  RH  036%=      5-min Rain = 0
KMC5 250027Z 31005KT 21/05 A2987 RMK A01 T02080052  RH  036%=      5-min Rain = 0
KMC5 250028Z 30006KT 21/06 A2987 RMK A01 T02070057  RH  037%=      5-min Rain = 0
KMC5 250029Z 30007KT 21/06 A2987 RMK A01 T02070056  RH  037%=      5-min Rain = 0
KMC5 250030Z 30006KT 21/06 A2987 RMK A01 T02070055  RH  037%=      5-min Rain = 0
KMC5 250031Z 31005KT 21/05 A2987 RMK A01 T02070054  RH  037%=      5-min Rain = 0
KMC5 250032Z 32004KT 21/05 A2987 RMK A01 T02060052  RH  036%=      5-min Rain = 0
KMC5 250033Z 33004KT 21/05 A2987 RMK A01 T02060054  RH  037%=      5-min Rain = 0
KMC5 250034Z 31004KT 21/05 A2987 RMK A01 T02060054  RH  037%=      5-min Rain = 0
KMC5 250035Z 31005KT 21/06 A2987 RMK A01 T02070058  RH  038%=      5-min Rain = 0
KMC5 250036Z 30005KT 21/06 A2987 RMK A01 T02060058  RH  038%=      5-min Rain = 0
KMC5 250037Z 31005KT 21/06 A2987 RMK A01 T02060057  RH  038%=      5-min Rain = 0
KMC5 250038Z 30005KT 21/06 A2987 RMK A01 T02050058  RH  038%=      5-min Rain = 0
KMC5 250039Z 30005KT 21/06 A2987 RMK A01 T02050060  RH  039%=      5-min Rain = 0
KMC5 250040Z 29005KT 21/06 A2987 RMK A01 T02050061  RH  039%=      5-min Rain = 0
KMC5 250041Z 30005KT 21/06 A2987 RMK A01 T02050056  RH  038%=      5-min Rain = 0
KMC5 250042Z 30004KT 20/06 A2987 RMK A01 T02040061  RH  039%=      5-min Rain = 0
KMC5 250043Z 30005KT 20/06 A2987 RMK A01 T02040064  RH  040%=      5-min Rain = 0
KMC5 250044Z 30004KT 20/06 A2987 RMK A01 T02030061  RH  040%=      5-min Rain = 0
KMC5 250045Z 30004KT 20/06 A2987 RMK A01 T02030062  RH  040%=      5-min Rain = 0
KMC5 250046Z 31003KT 20/06 A2987 RMK A01 T02020058  RH  039%=      5-min Rain = 0
KMC5 250047Z 31003KT 20/06 A2986 RMK A01 T02020058  RH  039%=      5-min Rain = 0
KMC5 250048Z 32004KT 20/05 A2986 RMK A01 T02020054  RH  038%=      5-min Rain = 0
KMC5 250049Z 33004KT 20/06 A2986 RMK A01 T02020055  RH  038%=      5-min Rain = 0
KMC5 250050Z 32004KT 20/05 A2986 RMK A01 T02020053  RH  037%=      5-min Rain = 0
KMC5 250051Z 32004KT 20/05 A2986 RMK A01 T02020054  RH  038%=      5-min Rain = 0
KMC5 250052Z 32003KT 20/06 A2986 RMK A01 T02020059  RH  039%=      5-min Rain = 0
KMC5 250053Z 33004KT 20/06 A2987 RMK A01 T02010063  RH  041%=      5-min Rain = 0
KMC5 250054Z 33004KT 20/06 A2987 RMK A01 T02000063  RH  041%=      5-min Rain = 0
KMC5 250055Z 33004KT 20/07 A2987 RMK A01 T01990065  RH  042%=      5-min Rain = 0
KMC5 250056Z 33004KT 20/07 A2986 RMK A01 T01980066  RH  042%=      5-min Rain = 0
KMC5 250057Z 33004KT 20/07 A2986 RMK A01 T01960067  RH  043%=      5-min Rain = 0
KMC5 250058Z 33004KT 20/07 A2986 RMK A01 T01960067  RH  043%=      5-min Rain = 0
KMC5 250059Z 33004KT 20/07 A2986 RMK A01 T01950066  RH  043%=      5-min Rain = 0
KMC5 250100Z 33004KT 20/06 A2986 RMK A01 T01950062  RH  042%=      5-min Rain = 0
KMC5 250101Z 33004KT 19/06 A2986 RMK A01 T01940063  RH  042%=      5-min Rain = 0
KMC5 250102Z 34004KT 19/07 A2986 RMK A01 T01930065  RH  043%=      5-min Rain = 0
KMC5 250103Z 34004KT 19/07 A2986 RMK A01 T01920065  RH  043%=      5-min Rain = 0
KMC5 250104Z 34005KT 19/07 A2986 RMK A01 T01910065  RH  044%=      5-min Rain = 0
KMC5 250105Z 34005KT 19/07 A2986 RMK A01 T01900067  RH  045%=      5-min Rain = 0
KMC5 250106Z 35005KT 19/07 A2986 RMK A01 T01890071  RH  046%=      5-min Rain = 0
KMC5 250107Z 36005KT 19/07 A2986 RMK A01 T01870073  RH  047%=      5-min Rain = 0
KMC5 250108Z 36006KT 19/08 A2986 RMK A01 T01860075  RH  048%=      5-min Rain = 0
KMC5 250109Z 35006KT 18/07 A2986 RMK A01 T01840073  RH  048%=      5-min Rain = 0
KMC5 250110Z 35006KT 18/07 A2986 RMK A01 T01830072  RH  048%=      5-min Rain = 0
KMC5 250111Z 35006KT 18/07 A2986 RMK A01 T01820071  RH  048%=      5-min Rain = 0
KMC5 250112Z 35006KT 18/07 A2986 RMK A01 T01810072  RH  049%=      5-min Rain = 0
KMC5 250113Z 35006KT 18/07 A2986 RMK A01 T01800070  RH  049%=      5-min Rain = 0
KMC5 250114Z 35007KT 18/07 A2986 RMK A01 T01800068  RH  048%=      5-min Rain = 0
KMC5 250115Z 35007KT 18/07 A2986 RMK A01 T01800068  RH  048%=      5-min Rain = 0
KMC5 250116Z 35006KT 18/07 A2986 RMK A01 T01800069  RH  048%=      5-min Rain = 0
KMC5 250117Z 35007KT 18/07 A2986 RMK A01 T01800070  RH  049%=      5-min Rain = 0
KMC5 250118Z 35007KT 18/07 A2986 RMK A01 T01790071  RH  049%=      5-min Rain = 0
KMC5 250119Z 35007KT 18/07 A2986 RMK A01 T01780072  RH  050%=      5-min Rain = 0
KMC5 250120Z 35007KT 18/07 A2986 RMK A01 T01770073  RH  050%=      5-min Rain = 0
KMC5 250121Z 35007KT 18/07 A2986 RMK A01 T01760074  RH  051%=      5-min Rain = 0
KMC5 250122Z 35007KT 18/08 A2986 RMK A01 T01750076  RH  052%=      5-min Rain = 0
KMC5 250123Z 36007KT 17/08 A2987 RMK A01 T01730075  RH  052%=      5-min Rain = 0
KMC5 250124Z 36006KT 17/07 A2987 RMK A01 T01720073  RH  052%=      5-min Rain = 0
KMC5 250125Z 36007KT 17/07 A2987 RMK A01 T01720072  RH  052%=      5-min Rain = 0
KMC5 250126Z 36007KT 17/07 A2987 RMK A01 T01710072  RH  052%=      5-min Rain = 0
KMC5 250127Z 00008KT 17/07 A2987 RMK A01 T01710072  RH  052%=      5-min Rain = 0
KMC5 250128Z 00008KT 17/07 A2987 RMK A01 T01700070  RH  052%=      5-min Rain = 0
KMC5 250129Z 01007KT 17/07 A2987 RMK A01 T01700068  RH  051%=      5-min Rain = 0
KMC5 250130Z 01007KT 17/07 A2987 RMK A01 T01700067  RH  050%=      5-min Rain = 0
KMC5 250131Z 01007KT 17/07 A2987 RMK A01 T01700065  RH  050%=      5-min Rain = 0
KMC5 250132Z 01006KT 17/07 A2987 RMK A01 T01700065  RH  050%=      5-min Rain = 0
KMC5 250133Z 01006KT 17/07 A2987 RMK A01 T01700066  RH  050%=      5-min Rain = 0
KMC5 250134Z 01006KT 17/07 A2987 RMK A01 T01700066  RH  050%=      5-min Rain = 0
KMC5 250135Z 01006KT 17/07 A2987 RMK A01 T01700066  RH  050%=      5-min Rain = 0
KMC5 250136Z 01006KT 17/07 A2987 RMK A01 T01690067  RH  051%=      5-min Rain = 0
KMC5 250137Z 01006KT 17/07 A2987 RMK A01 T01680068  RH  052%=      5-min Rain = 0
KMC5 250138Z 01006KT 17/07 A2987 RMK A01 T01670067  RH  052%=      5-min Rain = 0
KMC5 250139Z 01006KT 17/07 A2987 RMK A01 T01670067  RH  052%=      5-min Rain = 0
KMC5 250140Z 00004KT 17/07 A2987 RMK A01 T01650068  RH  053%=      5-min Rain = 0
KMC5 250141Z 05002KT 16/07 A2987 RMK A01 T01630069  RH  054%=      5-min Rain = 0
KMC5 250142Z 07004KT 16/07 A2987 RMK A01 T01600068  RH  054%=      5-min Rain = 0
KMC5 250143Z 08003KT 16/07 A2987 RMK A01 T01600067  RH  054%=      5-min Rain = 0
KMC5 250144Z 08004KT 16/07 A2987 RMK A01 T01600067  RH  054%=      5-min Rain = 0
KMC5 250145Z 08004KT 16/07 A2987 RMK A01 T01630065  RH  052%=      5-min Rain = 0
KMC5 250146Z 07004KT 17/07 A2987 RMK A01 T01670066  RH  051%=      5-min Rain = 0
KMC5 250147Z 09004KT 17/07 A2987 RMK A01 T01680067  RH  051%=      5-min Rain = 0
KMC5 250148Z 12004KT 17/07 A2987 RMK A01 T01690070  RH  052%=      5-min Rain = 0
KMC5 250149Z 14004KT 17/07 A2987 RMK A01 T01670074  RH  054%=      5-min Rain = 0
KMC5 250150Z 14004KT 17/08 A2987 RMK A01 T01650076  RH  056%=      5-min Rain = 0
KMC5 250151Z 15004KT 17/08 A2987 RMK A01 T01650081  RH  058%=      5-min Rain = 0
KMC5 250152Z 14004KT 16/09 A2987 RMK A01 T01640085  RH  059%=      5-min Rain = 0
KMC5 250153Z 12004KT 16/09 A2988 RMK A01 T01630085  RH  060%=      5-min Rain = 0
KMC5 250154Z 16003KT 17/08 A2988 RMK A01 T01650084  RH  058%=      5-min Rain = 0
KMC5 250155Z 16002KT 17/09 A2988 RMK A01 T01670088  RH  060%=      5-min Rain = 0
KMC5 250156Z 14002KT 17/09 A2988 RMK A01 T01670089  RH  060%=      5-min Rain = 0
KMC5 250157Z 12002KT 17/09 A2988 RMK A01 T01660085  RH  059%=      5-min Rain = 0
KMC5 250158Z 11002KT 17/09 A2988 RMK A01 T01660085  RH  059%=      5-min Rain = 0
KMC5 250159Z 12003KT 17/09 A2988 RMK A01 T01660086  RH  059%=      5-min Rain = 0
KMC5 250200Z 13003KT 17/09 A2988 RMK A01 T01660088  RH  060%=      5-min Rain = 0
KMC5 250201Z 13002KT 17/09 A2988 RMK A01 T01650087  RH  060%=      5-min Rain = 0
KMC5 250202Z 14002KT 16/09 A2988 RMK A01 T01630085  RH  060%=      5-min Rain = 0
KMC5 250203Z 10002KT 16/09 A2988 RMK A01 T01620088  RH  061%=      5-min Rain = 0
KMC5 250204Z 14002KT 16/09 A2988 RMK A01 T01610087  RH  061%=      5-min Rain = 0
KMC5 250205Z 15005KT 16/09 A2988 RMK A01 T01590087  RH  062%=      5-min Rain = 0
KMC5 250206Z 15006KT 16/09 A2988 RMK A01 T01560090  RH  065%=      5-min Rain = 0
KMC5 250207Z 15007KT 15/09 A2988 RMK A01 T01530091  RH  067%=      5-min Rain = 0
KMC5 250208Z 15007KT 15/09 A2988 RMK A01 T01500094  RH  069%=      5-min Rain = 0
KMC5 250209Z 16007KT 15/10 A2988 RMK A01 T01480095  RH  070%=      5-min Rain = 0
KMC5 250210Z 15007KT 15/10 A2988 RMK A01 T01470096  RH  071%=      5-min Rain = 0
KMC5 250211Z 14007KT 15/10 A2988 RMK A01 T01460096  RH  072%=      5-min Rain = 0
KMC5 250212Z 15006KT 15/10 A2988 RMK A01 T01460096  RH  072%=      5-min Rain = 0
KMC5 250213Z 15006KT 15/10 A2988 RMK A01 T01460096  RH  072%=      5-min Rain = 0
KMC5 250214Z 15007KT 15/10 A2988 RMK A01 T01460097  RH  072%=      5-min Rain = 0
KMC5 250215Z 16007KT 15/10 A2988 RMK A01 T01450097  RH  073%=      5-min Rain = 0
KMC5 250216Z 15006KT 15/10 A2988 RMK A01 T01450097  RH  073%=      5-min Rain = 0
KMC5 250217Z 16006KT 15/10 A2988 RMK A01 T01450097  RH  073%=      5-min Rain = 0
KMC5 250218Z 15006KT 15/10 A2988 RMK A01 T01450097  RH  073%=      5-min Rain = 0
KMC5 250219Z 16006KT 15/10 A2988 RMK A01 T01450097  RH  073%=      5-min Rain = 0
KMC5 250220Z 15006KT 14/10 A2988 RMK A01 T01440097  RH  074%=      5-min Rain = 0
KMC5 250221Z 15006KT 14/10 A2989 RMK A01 T01420097  RH  075%=      5-min Rain = 0
KMC5 250222Z 16007KT 14/10 A2989 RMK A01 T01400097  RH  075%=      5-min Rain = 0
KMC5 250223Z 16006KT 14/10 A2989 RMK A01 T01400098  RH  075%=      5-min Rain = 0
KMC5 250224Z 16006KT 14/10 A2989 RMK A01 T01410098  RH  075%=      5-min Rain = 0
KMC5 250225Z 16006KT 14/10 A2989 RMK A01 T01400097  RH  075%=      5-min Rain = 0
KMC5 250226Z 16006KT 14/10 A2989 RMK A01 T01410098  RH  075%=      5-min Rain = 0
KMC5 250227Z 16007KT 14/10 A2988 RMK A01 T01410098  RH  075%=      5-min Rain = 0
KMC5 250228Z 17006KT 14/10 A2988 RMK A01 T01410097  RH  075%=      5-min Rain = 0
KMC5 250229Z 16007KT 14/10 A2988 RMK A01 T01410098  RH  075%=      5-min Rain = 0
KMC5 250230Z 17007KT 14/10 A2988 RMK A01 T01410097  RH  075%=      5-min Rain = 0
KMC5 250231Z 17006KT 14/10 A2988 RMK A01 T01410097  RH  075%=      5-min Rain = 0
KMC5 250232Z 17006KT 14/10 A2988 RMK A01 T01410097  RH  075%=      5-min Rain = 0
KMC5 250233Z 17006KT 14/10 A2988 RMK A01 T01420097  RH  074%=      5-min Rain = 0
KMC5 250234Z 17006KT 14/10 A2988 RMK A01 T01420096  RH  074%=      5-min Rain = 0
KMC5 250235Z 18006KT 14/10 A2988 RMK A01 T01430096  RH  074%=      5-min Rain = 0
KMC5 250236Z 18005KT 14/10 A2988 RMK A01 T01430096  RH  073%=      5-min Rain = 0
KMC5 250237Z 18005KT 14/10 A2988 RMK A01 T01440096  RH  073%=      5-min Rain = 0
KMC5 250238Z 18006KT 15/10 A2988 RMK A01 T01450096  RH  072%=      5-min Rain = 0
KMC5 250239Z 18005KT 15/10 A2988 RMK A01 T01460096  RH  072%=      5-min Rain = 0
KMC5 250240Z 18005KT 15/10 A2988 RMK A01 T01460096  RH  072%=      5-min Rain = 0
KMC5 250241Z 18006KT 15/10 A2988 RMK A01 T01460096  RH  072%=      5-min Rain = 0
KMC5 250242Z 17006KT 15/10 A2988 RMK A01 T01450095  RH  072%=      5-min Rain = 0
KMC5 250243Z 17006KT 15/10 A2988 RMK A01 T01450095  RH  072%=      5-min Rain = 0
KMC5 250244Z 17006KT 14/10 A2988 RMK A01 T01440095  RH  072%=      5-min Rain = 0
KMC5 250245Z 17006KT 14/10 A2988 RMK A01 T01430095  RH  072%=      5-min Rain = 0
KMC5 250246Z 17006KT 14/10 A2988 RMK A01 T01430095  RH  073%=      5-min Rain = 0
KMC5 250247Z 18007KT 14/10 A2988 RMK A01 T01420095  RH  073%=      5-min Rain = 0
KMC5 250248Z 18006KT 14/10 A2989 RMK A01 T01420095  RH  073%=      5-min Rain = 0
KMC5 250249Z 17006KT 14/10 A2989 RMK A01 T01420095  RH  074%=      5-min Rain = 0
KMC5 250250Z 17006KT 14/10 A2989 RMK A01 T01410096  RH  074%=      5-min Rain = 0
KMC5 250251Z 17006KT 14/10 A2989 RMK A01 T01410096  RH  074%=      5-min Rain = 0
KMC5 250252Z 18006KT 14/10 A2989 RMK A01 T01410096  RH  074%=      5-min Rain = 0
KMC5 250253Z 18006KT 14/10 A2989 RMK A01 T01400096  RH  075%=      5-min Rain = 0
KMC5 250254Z 18006KT 14/10 A2989 RMK A01 T01390096  RH  075%=      5-min Rain = 0
KMC5 250255Z 18006KT 14/10 A2989 RMK A01 T01400096  RH  075%=      5-min Rain = 0
KMC5 250256Z 18006KT 14/10 A2989 RMK A01 T01400096  RH  075%=      5-min Rain = 0
KMC5 250257Z 18006KT 14/10 A2989 RMK A01 T01410096  RH  074%=      5-min Rain = 0
KMC5 250258Z 18006KT 14/10 A2989 RMK A01 T01420096  RH  074%=      5-min Rain = 0
KMC5 250259Z 18006KT 14/10 A2989 RMK A01 T01430096  RH  073%=      5-min Rain = 0
KMC5 250300Z 18006KT 14/10 A2989 RMK A01 T01440096  RH  073%=      5-min Rain = 0
KMC5 250301Z 19005KT 14/10 A2989 RMK A01 T01440096  RH  073%=      5-min Rain = 0
KMC5 250302Z 19006KT 15/10 A2989 RMK A01 T01450096  RH  072%=      5-min Rain = 0
KMC5 250303Z 19006KT 15/10 A2989 RMK A01 T01450097  RH  073%=      5-min Rain = 0
KMC5 250304Z 18006KT 14/10 A2989 RMK A01 T01430096  RH  073%=      5-min Rain = 0
KMC5 250305Z 18005KT 14/10 A2989 RMK A01 T01430096  RH  073%=      5-min Rain = 0
KMC5 250306Z 18005KT 14/10 A2989 RMK A01 T01440097  RH  073%=      5-min Rain = 0
KMC5 250307Z 18005KT 14/10 A2989 RMK A01 T01420096  RH  074%=      5-min Rain = 0
KMC5 250308Z 18005KT 14/10 A2989 RMK A01 T01420096  RH  074%=      5-min Rain = 0
KMC5 250309Z 18006KT 14/10 A2989 RMK A01 T01410096  RH  074%=      5-min Rain = 0
KMC5 250310Z 18005KT 14/10 A2989 RMK A01 T01420096  RH  074%=      5-min Rain = 0
KMC5 250311Z 18006KT 14/10 A2989 RMK A01 T01420096  RH  074%=      5-min Rain = 0
KMC5 250312Z 19006KT 14/10 A2989 RMK A01 T01410096  RH  074%=      5-min Rain = 0
KMC5 250313Z 18007KT 14/10 A2989 RMK A01 T01390096  RH  075%=      5-min Rain = 0
KMC5 250314Z 20005KT 14/10 A2989 RMK A01 T01390096  RH  075%=      5-min Rain = 0
KMC5 250315Z 20005KT 14/10 A2989 RMK A01 T01390096  RH  075%=      5-min Rain = 0
KMC5 250316Z 20005KT 14/10 A2989 RMK A01 T01390095  RH  075%=      5-min Rain = 0
KMC5 250317Z 19006KT 14/10 A2989 RMK A01 T01390095  RH  075%=      5-min Rain = 0
KMC5 250318Z 19007KT 14/10 A2989 RMK A01 T01390096  RH  075%=      5-min Rain = 0
KMC5 250319Z 19006KT 14/10 A2989 RMK A01 T01370095  RH  076%=      5-min Rain = 0
KMC5 250320Z 19006KT 14/10 A2989 RMK A01 T01380096  RH  076%=      5-min Rain = 0
KMC5 250321Z 19006KT 14/10 A2989 RMK A01 T01390096  RH  075%=      5-min Rain = 0
KMC5 250322Z 19006KT 14/10 A2989 RMK A01 T01390097  RH  076%=      5-min Rain = 0
KMC5 250323Z 19007KT 14/10 A2989 RMK A01 T01390097  RH  076%=      5-min Rain = 0
KMC5 250324Z 18007KT 14/10 A2989 RMK A01 T01380097  RH  076%=      5-min Rain = 0
KMC5 250325Z 19007KT 14/10 A2989 RMK A01 T01390097  RH  076%=      5-min Rain = 0
KMC5 250326Z 19007KT 14/10 A2989 RMK A01 T01390097  RH  076%=      5-min Rain = 0
KMC5 250327Z 19007KT 14/10 A2989 RMK A01 T01390097  RH  076%=      5-min Rain = 0
KMC5 250328Z 19007KT 14/10 A2989 RMK A01 T01380097  RH  076%=      5-min Rain = 0
KMC5 250329Z 18007KT 14/10 A2989 RMK A01 T01380097  RH  077%=      5-min Rain = 0
KMC5 250330Z 18007KT 14/10 A2989 RMK A01 T01370097  RH  077%=      5-min Rain = 0
KMC5 250331Z 18007KT 14/10 A2989 RMK A01 T01370097  RH  077%=      5-min Rain = 0
KMC5 250332Z 19006KT 14/10 A2989 RMK A01 T01370097  RH  077%=      5-min Rain = 0
KMC5 250333Z 18006KT 14/10 A2989 RMK A01 T01370097  RH  077%=      5-min Rain = 0
KMC5 250334Z 19007KT 14/10 A2989 RMK A01 T01360097  RH  077%=      5-min Rain = 0
KMC5 250335Z 19006KT 14/10 A2989 RMK A01 T01360097  RH  077%=      5-min Rain = 0
KMC5 250336Z 19006KT 14/10 A2989 RMK A01 T01360097  RH  077%=      5-min Rain = 0
KMC5 250337Z 19006KT 14/10 A2989 RMK A01 T01360096  RH  077%=      5-min Rain = 0
KMC5 250338Z 20005KT 14/10 A2989 RMK A01 T01360096  RH  077%=      5-min Rain = 0
KMC5 250339Z 20004KT 14/10 A2989 RMK A01 T01350096  RH  077%=      5-min Rain = 0
KMC5 250340Z 20005KT 13/10 A2989 RMK A01 T01340096  RH  078%=      5-min Rain = 0
KMC5 250341Z 21005KT 13/10 A2989 RMK A01 T01330096  RH  078%=      5-min Rain = 0
KMC5 250342Z 20005KT 13/10 A2989 RMK A01 T01340096  RH  078%=      5-min Rain = 0
KMC5 250343Z 20005KT 13/10 A2989 RMK A01 T01340096  RH  078%=      5-min Rain = 0
KMC5 250344Z 19006KT 13/10 A2989 RMK A01 T01330096  RH  078%=      5-min Rain = 0
KMC5 250345Z 19005KT 13/10 A2989 RMK A01 T01330096  RH  078%=      5-min Rain = 0
KMC5 250346Z 20006KT 13/10 A2989 RMK A01 T01330096  RH  078%=      5-min Rain = 0
KMC5 250347Z 20005KT 13/10 A2989 RMK A01 T01340096  RH  078%=      5-min Rain = 0
KMC5 250348Z 21005KT 13/10 A2989 RMK A01 T01330096  RH  078%=      5-min Rain = 0
KMC5 250349Z 20005KT 13/10 A2989 RMK A01 T01330096  RH  078%=      5-min Rain = 0
KMC5 250350Z 21005KT 13/10 A2989 RMK A01 T01330096  RH  078%=      5-min Rain = 0
KMC5 250351Z 21005KT 13/10 A2989 RMK A01 T01330095  RH  078%=      5-min Rain = 0
KMC5 250352Z 21005KT 13/10 A2989 RMK A01 T01330095  RH  078%=      5-min Rain = 0
KMC5 250353Z 21005KT 13/10 A2989 RMK A01 T01330095  RH  078%=      5-min Rain = 0
KMC5 250354Z 21005KT 13/10 A2989 RMK A01 T01330095  RH  078%=      5-min Rain = 0
KMC5 250355Z 21005KT 13/10 A2989 RMK A01 T01320095  RH  078%=      5-min Rain = 0
KMC5 250356Z 21004KT 13/10 A2989 RMK A01 T01320095  RH  078%=      5-min Rain = 0
KMC5 250357Z 21004KT 13/10 A2989 RMK A01 T01320095  RH  078%=      5-min Rain = 0
KMC5 250358Z 21004KT 13/10 A2989 RMK A01 T01320095  RH  078%=      5-min Rain = 0
KMC5 250359Z 21005KT 13/10 A2989 RMK A01 T01310095  RH  079%=      5-min Rain = 0
KMC5 250400Z 20005KT 13/10 A2988 RMK A01 T01310095  RH  079%=      5-min Rain = 0
KMC5 250401Z 20006KT 13/10 A2988 RMK A01 T01300095  RH  079%=      5-min Rain = 0
KMC5 250402Z 19006KT 13/10 A2988 RMK A01 T01300095  RH  079%=      5-min Rain = 0
KMC5 250403Z 19006KT 13/10 A2988 RMK A01 T01300095  RH  079%=      5-min Rain = 0
KMC5 250404Z 19007KT 13/10 A2988 RMK A01 T01300095  RH  079%=      5-min Rain = 0
KMC5 250405Z 19006KT 13/10 A2988 RMK A01 T01290095  RH  080%=      5-min Rain = 0
KMC5 250406Z 20006KT 13/10 A2988 RMK A01 T01290095  RH  080%=      5-min Rain = 0
KMC5 250407Z 20006KT 13/10 A2988 RMK A01 T01290096  RH  080%=      5-min Rain = 0
KMC5 250408Z 20006KT 13/10 A2988 RMK A01 T01290096  RH  081%=      5-min Rain = 0
KMC5 250409Z 20006KT 13/10 A2988 RMK A01 T01290096  RH  081%=      5-min Rain = 0
KMC5 250410Z 20006KT 13/10 A2988 RMK A01 T01290096  RH  080%=      5-min Rain = 0
KMC5 250411Z 21005KT 13/10 A2988 RMK A01 T01290096  RH  080%=      5-min Rain = 0
KMC5 250412Z 21005KT 13/10 A2988 RMK A01 T01300096  RH  080%=      5-min Rain = 0
KMC5 250413Z 21005KT 13/10 A2988 RMK A01 T01300096  RH  080%=      5-min Rain = 0
KMC5 250414Z 21005KT 13/10 A2988 RMK A01 T01290095  RH  080%=      5-min Rain = 0
KMC5 250415Z 20005KT 13/10 A2988 RMK A01 T01270095  RH  080%=      5-min Rain = 0
KMC5 250416Z 20005KT 13/09 A2988 RMK A01 T01260094  RH  081%=      5-min Rain = 0
KMC5 250417Z 20006KT 13/09 A2988 RMK A01 T01260094  RH  081%=      5-min Rain = 0
KMC5 250418Z 20005KT 13/09 A2988 RMK A01 T01260094  RH  081%=      5-min Rain = 0
KMC5 250419Z 20005KT 13/10 A2988 RMK A01 T01260095  RH  081%=      5-min Rain = 0
KMC5 250420Z 20005KT 13/10 A2988 RMK A01 T01260095  RH  081%=      5-min Rain = 0
KMC5 250421Z 21005KT 13/10 A2988 RMK A01 T01270095  RH  081%=      5-min Rain = 0
KMC5 250422Z 20005KT 13/10 A2988 RMK A01 T01280095  RH  080%=      5-min Rain = 0
KMC5 250423Z 20005KT 13/10 A2988 RMK A01 T01290096  RH  080%=      5-min Rain = 0
KMC5 250424Z 20005KT 13/10 A2988 RMK A01 T01300096  RH  080%=      5-min Rain = 0
KMC5 250425Z 20005KT 13/10 A2988 RMK A01 T01310096  RH  079%=      5-min Rain = 0
KMC5 250426Z 20005KT 13/10 A2988 RMK A01 T01310096  RH  079%=      5-min Rain = 0
KMC5 250427Z 20005KT 13/10 A2988 RMK A01 T01320095  RH  079%=      5-min Rain = 0
KMC5 250428Z 20006KT 13/10 A2988 RMK A01 T01320095  RH  079%=      5-min Rain = 0
KMC5 250429Z 20006KT 13/10 A2988 RMK A01 T01310095  RH  079%=      5-min Rain = 0
KMC5 250430Z 20007KT 13/10 A2988 RMK A01 T01310095  RH  079%=      5-min Rain = 0
KMC5 250431Z 20006KT 13/10 A2988 RMK A01 T01310096  RH  079%=      5-min Rain = 0
KMC5 250432Z 20007KT 13/10 A2988 RMK A01 T01320095  RH  078%=      5-min Rain = 0
KMC5 250433Z 20007KT 13/10 A2988 RMK A01 T01320095  RH  078%=      5-min Rain = 0
KMC5 250434Z 20007KT 13/10 A2988 RMK A01 T01310095  RH  079%=      5-min Rain = 0
KMC5 250435Z 20007KT 13/10 A2988 RMK A01 T01310095  RH  079%=      5-min Rain = 0
KMC5 250436Z 20006KT 13/10 A2988 RMK A01 T01300095  RH  079%=      5-min Rain = 0
KMC5 250437Z 20006KT 13/10 A2988 RMK A01 T01290095  RH  080%=      5-min Rain = 0
KMC5 250438Z 20006KT 13/10 A2988 RMK A01 T01280095  RH  080%=      5-min Rain = 0
KMC5 250439Z 20006KT 13/10 A2988 RMK A01 T01290095  RH  080%=      5-min Rain = 0
KMC5 250440Z 20006KT 13/10 A2988 RMK A01 T01300095  RH  080%=      5-min Rain = 0
KMC5 250441Z 20005KT 13/10 A2988 RMK A01 T01290095  RH  080%=      5-min Rain = 0
KMC5 250442Z 20006KT 13/10 A2988 RMK A01 T01290095  RH  080%=      5-min Rain = 0
KMC5 250443Z 20006KT 13/10 A2988 RMK A01 T01280095  RH  080%=      5-min Rain = 0
KMC5 250444Z 20006KT 13/10 A2988 RMK A01 T01280095  RH  080%=      5-min Rain = 0
KMC5 250445Z 20006KT 13/10 A2988 RMK A01 T01270095  RH  081%=      5-min Rain = 0
KMC5 250446Z 20006KT 13/10 A2988 RMK A01 T01270095  RH  081%=      5-min Rain = 0
KMC5 250447Z 20006KT 13/10 A2988 RMK A01 T01270095  RH  081%=      5-min Rain = 0
KMC5 250448Z 20006KT 13/10 A2988 RMK A01 T01270095  RH  081%=      5-min Rain = 0
KMC5 250449Z 20007KT 13/10 A2988 RMK A01 T01260095  RH  081%=      5-min Rain = 0
KMC5 250450Z 20007KT 13/10 A2988 RMK A01 T01260095  RH  081%=      5-min Rain = 0
KMC5 250451Z 20006KT 13/10 A2988 RMK A01 T01260095  RH  082%=      5-min Rain = 0
KMC5 250452Z 20006KT 13/10 A2988 RMK A01 T01260095  RH  082%=      5-min Rain = 0
KMC5 250453Z 20006KT 13/10 A2988 RMK A01 T01250095  RH  082%=      5-min Rain = 0
KMC5 250454Z 21006KT 13/10 A2988 RMK A01 T01250095  RH  082%=      5-min Rain = 0
KMC5 250455Z 21006KT 12/10 A2988 RMK A01 T01240095  RH  082%=      5-min Rain = 0
KMC5 250456Z 20007KT 12/10 A2988 RMK A01 T01240095  RH  082%=      5-min Rain = 0
KMC5 250457Z 19007KT 12/10 A2988 RMK A01 T01230095  RH  083%=      5-min Rain = 0
KMC5 250458Z 19007KT 12/09 A2988 RMK A01 T01230094  RH  083%=      5-min Rain = 0
KMC5 250459Z 19006KT 12/10 A2988 RMK A01 T01240095  RH  082%=      5-min Rain = 0

Page generated in 0.1246 seconds.